OCN61 KRSW-EDDF
Flight info
| Callsign | OCN61 |
|---|---|
| Flight time | 8h 27m |
| Altitude | 35000 |
| Route | CSHEL8 VIYAP/N0469F370 Q87 NOWAE DCT BBOBO Q22 RBV Q430 ACK DCT TUSKY N355C JOOPY/M080F390 NATY ELSOX DCT LESLU/N0458F390 DCT OXLOW DCT KONAN UL607 SPI T180 NIVNU T847 IMCOM IMCOM1B |
| Aircraft | A333/H-SDE3GHIJ2J3J5M1RVWXY/LB2D1 |
Departure
| Time | 2026-05-07 23:23 |
|---|---|
| Airport | Southwest Florida International Airport (KRSW) |
Arrival
| Time | 2026-05-08 07:50 |
|---|---|
| Airport | Frankfurt Main Airport (EDDF) |
| Time | Latitude | Longitude | Altitude | Speed | Heading |
|---|---|---|---|---|---|
| 2026-05-07 22:56 | 26.52857 | -81.75139 | 48 ft | 0 kts | 299° |
| 2026-05-07 23:10 | 26.52857 | -81.75137 | 48 ft | 2 kts | 299° |
| 2026-05-07 23:10 | 26.52846 | -81.75113 | 46 ft | 4 kts | 284° |
| 2026-05-07 23:11 | 26.52841 | -81.75097 | 46 ft | 4 kts | 307° |
| 2026-05-07 23:11 | 26.52823 | -81.75077 | 44 ft | 4 kts | 338° |
| 2026-05-07 23:11 | 26.52799 | -81.75075 | 43 ft | 4 kts | 32° |
| 2026-05-07 23:11 | 26.52787 | -81.75087 | 43 ft | 1 kts | 54° |
| 2026-05-07 23:12 | 26.52785 | -81.75090 | 46 ft | 0 kts | 54° |
| 2026-05-07 23:14 | 26.52807 | -81.75056 | 48 ft | 12 kts | 54° |
| 2026-05-07 23:14 | 26.52862 | -81.74971 | 48 ft | 14 kts | 54° |
| 2026-05-07 23:15 | 26.52922 | -81.74891 | 48 ft | 13 kts | 30° |
| 2026-05-07 23:15 | 26.52999 | -81.74914 | 48 ft | 12 kts | 324° |
| 2026-05-07 23:15 | 26.53065 | -81.74967 | 48 ft | 12 kts | 324° |
| 2026-05-07 23:15 | 26.53139 | -81.75026 | 48 ft | 15 kts | 324° |
| 2026-05-07 23:16 | 26.53230 | -81.75099 | 48 ft | 16 kts | 324° |
| 2026-05-07 23:16 | 26.53322 | -81.75172 | 48 ft | 16 kts | 324° |
| 2026-05-07 23:16 | 26.53412 | -81.75245 | 48 ft | 16 kts | 324° |
| 2026-05-07 23:16 | 26.53500 | -81.75317 | 48 ft | 13 kts | 323° |
| 2026-05-07 23:17 | 26.53564 | -81.75350 | 47 ft | 10 kts | 6° |
| 2026-05-07 23:17 | 26.53615 | -81.75308 | 47 ft | 9 kts | 48° |
| 2026-05-07 23:17 | 26.53654 | -81.75250 | 48 ft | 11 kts | 54° |
| 2026-05-07 23:17 | 26.53713 | -81.75159 | 47 ft | 18 kts | 54° |
| 2026-05-07 23:18 | 26.53786 | -81.75047 | 48 ft | 17 kts | 54° |
| 2026-05-07 23:18 | 26.53856 | -81.74939 | 48 ft | 17 kts | 54° |
| 2026-05-07 23:18 | 26.53925 | -81.74832 | 48 ft | 17 kts | 54° |
| 2026-05-07 23:18 | 26.53994 | -81.74727 | 49 ft | 17 kts | 54° |
| 2026-05-07 23:19 | 26.54062 | -81.74622 | 48 ft | 17 kts | 54° |
| 2026-05-07 23:19 | 26.54131 | -81.74516 | 48 ft | 17 kts | 54° |
| 2026-05-07 23:19 | 26.54201 | -81.74408 | 45 ft | 17 kts | 54° |
| 2026-05-07 23:19 | 26.54270 | -81.74302 | 48 ft | 17 kts | 54° |
| 2026-05-07 23:20 | 26.54343 | -81.74190 | 48 ft | 17 kts | 54° |
| 2026-05-07 23:20 | 26.54413 | -81.74082 | 48 ft | 16 kts | 54° |
| 2026-05-07 23:20 | 26.54451 | -81.74024 | 48 ft | 7 kts | 54° |
| 2026-05-07 23:20 | 26.54486 | -81.73995 | 48 ft | 6 kts | 15° |
| 2026-05-07 23:21 | 26.54523 | -81.74004 | 49 ft | 7 kts | 334° |
| 2026-05-07 23:21 | 26.54556 | -81.74029 | 48 ft | 2 kts | 322° |
| 2026-05-07 23:21 | 26.54561 | -81.74050 | 46 ft | 3 kts | 263° |
| 2026-05-07 23:21 | 26.54546 | -81.74086 | 48 ft | 8 kts | 238° |
| 2026-05-07 23:22 | 26.54472 | -81.74204 | 48 ft | 41 kts | 234° |
| 2026-05-07 23:22 | 26.54181 | -81.74649 | 49 ft | 100 kts | 233° |
| 2026-05-07 23:22 | 26.53663 | -81.75442 | 44 ft | 152 kts | 233° |
| 2026-05-07 23:22 | 26.52982 | -81.76488 | 422 ft | 172 kts | 234° |
| 2026-05-07 23:23 | 26.52247 | -81.77615 | 921 ft | 191 kts | 235° |
| 2026-05-07 23:23 | 26.51435 | -81.78854 | 1424 ft | 204 kts | 236° |
| 2026-05-07 23:23 | 26.50585 | -81.80185 | 1821 ft | 217 kts | 237° |
| 2026-05-07 23:23 | 26.49755 | -81.81642 | 2165 ft | 230 kts | 247° |
| 2026-05-07 23:24 | 26.49443 | -81.83431 | 2419 ft | 244 kts | 275° |
| 2026-05-07 23:24 | 26.49748 | -81.85313 | 2933 ft | 249 kts | 291° |
| 2026-05-07 23:24 | 26.50705 | -81.86928 | 3436 ft | 256 kts | 320° |
| 2026-05-07 23:24 | 26.52274 | -81.87876 | 4029 ft | 259 kts | 338° |
| 2026-05-07 23:25 | 26.53987 | -81.88533 | 4664 ft | 262 kts | 341° |
| 2026-05-07 23:25 | 26.55727 | -81.89158 | 5264 ft | 263 kts | 341° |
| 2026-05-07 23:25 | 26.57486 | -81.89799 | 5835 ft | 268 kts | 341° |
| 2026-05-07 23:25 | 26.59269 | -81.90460 | 6441 ft | 271 kts | 340° |
| 2026-05-07 23:26 | 26.61062 | -81.91132 | 7000 ft | 273 kts | 340° |
| 2026-05-07 23:26 | 26.62777 | -81.91721 | 7479 ft | 279 kts | 347° |
| 2026-05-07 23:26 | 26.64738 | -81.91795 | 7979 ft | 287 kts | 4° |
| 2026-05-07 23:26 | 26.66741 | -81.91519 | 8493 ft | 293 kts | 6° |
| 2026-05-07 23:27 | 26.70122 | -81.90957 | 9457 ft | 299 kts | 6° |
| 2026-05-07 23:27 | 26.72194 | -81.90618 | 9960 ft | 305 kts | 7° |
| 2026-05-07 23:27 | 26.74327 | -81.90274 | 10329 ft | 316 kts | 6° |
| 2026-05-07 23:28 | 26.76549 | -81.89840 | 10557 ft | 332 kts | 13° |
| 2026-05-07 23:28 | 26.78759 | -81.88946 | 10774 ft | 348 kts | 23° |
| 2026-05-07 23:28 | 26.80989 | -81.87717 | 10984 ft | 362 kts | 26° |
| 2026-05-07 23:28 | 26.83252 | -81.86364 | 11230 ft | 374 kts | 27° |
| 2026-05-07 23:29 | 26.85553 | -81.84951 | 11635 ft | 380 kts | 27° |
| 2026-05-07 23:29 | 26.87874 | -81.83512 | 12128 ft | 383 kts | 27° |
| 2026-05-07 23:29 | 26.90208 | -81.82059 | 12663 ft | 385 kts | 27° |
| 2026-05-07 23:29 | 26.92553 | -81.80596 | 13193 ft | 387 kts | 27° |
| 2026-05-07 23:30 | 26.94915 | -81.79121 | 13693 ft | 390 kts | 27° |
| 2026-05-07 23:30 | 26.97298 | -81.77632 | 14139 ft | 394 kts | 27° |
| 2026-05-07 23:30 | 26.99726 | -81.76208 | 14598 ft | 394 kts | 20° |
| 2026-05-07 23:30 | 27.02351 | -81.75378 | 15063 ft | 391 kts | 3° |
| 2026-05-07 23:31 | 27.05039 | -81.75473 | 15517 ft | 386 kts | 346° |
| 2026-05-07 23:31 | 27.07633 | -81.76221 | 16018 ft | 385 kts | 340° |
| 2026-05-07 23:31 | 27.10197 | -81.77112 | 16501 ft | 386 kts | 339° |
| 2026-05-07 23:31 | 27.12762 | -81.78020 | 16979 ft | 388 kts | 339° |
| 2026-05-07 23:32 | 27.15348 | -81.78930 | 17452 ft | 390 kts | 339° |
| 2026-05-07 23:32 | 27.17941 | -81.79835 | 17916 ft | 391 kts | 339° |
| 2026-05-07 23:32 | 27.20550 | -81.80743 | 18368 ft | 393 kts | 339° |
| 2026-05-07 23:32 | 27.23162 | -81.81650 | 18757 ft | 395 kts | 339° |
| 2026-05-07 23:33 | 27.25798 | -81.82564 | 19138 ft | 397 kts | 339° |
| 2026-05-07 23:33 | 27.28441 | -81.83480 | 19513 ft | 399 kts | 338° |
| 2026-05-07 23:33 | 27.31104 | -81.84404 | 19870 ft | 401 kts | 338° |
| 2026-05-07 23:33 | 27.33777 | -81.85331 | 20230 ft | 403 kts | 338° |
| 2026-05-07 23:34 | 27.36465 | -81.86263 | 20586 ft | 405 kts | 338° |
| 2026-05-07 23:34 | 27.39166 | -81.87201 | 20931 ft | 407 kts | 338° |
| 2026-05-07 23:34 | 27.41884 | -81.88145 | 21280 ft | 409 kts | 338° |
| 2026-05-07 23:34 | 27.44575 | -81.89079 | 21623 ft | 411 kts | 338° |
| 2026-05-07 23:35 | 27.47317 | -81.90032 | 21968 ft | 413 kts | 338° |
| 2026-05-07 23:35 | 27.50106 | -81.91002 | 22311 ft | 415 kts | 338° |
| 2026-05-07 23:35 | 27.52839 | -81.91953 | 22639 ft | 418 kts | 338° |
| 2026-05-07 23:35 | 27.55622 | -81.92922 | 22970 ft | 420 kts | 338° |
| 2026-05-07 23:36 | 27.58415 | -81.93894 | 23302 ft | 422 kts | 338° |
| 2026-05-07 23:36 | 27.61263 | -81.94887 | 23631 ft | 424 kts | 337° |
| 2026-05-07 23:36 | 27.64053 | -81.95860 | 23897 ft | 426 kts | 337° |
| 2026-05-07 23:36 | 27.66886 | -81.96848 | 24177 ft | 428 kts | 337° |
| 2026-05-07 23:37 | 27.69736 | -81.97842 | 24454 ft | 429 kts | 337° |
| 2026-05-07 23:37 | 27.72600 | -81.98843 | 24727 ft | 431 kts | 337° |
| 2026-05-07 23:37 | 27.75470 | -81.99845 | 25010 ft | 433 kts | 337° |
| 2026-05-07 23:37 | 27.78355 | -82.00847 | 25290 ft | 435 kts | 338° |
| 2026-05-07 23:38 | 27.81258 | -82.01829 | 25551 ft | 437 kts | 338° |
| 2026-05-07 23:38 | 27.84182 | -82.02811 | 25858 ft | 439 kts | 338° |
| 2026-05-07 23:38 | 27.87107 | -82.03794 | 26129 ft | 440 kts | 338° |
| 2026-05-07 23:38 | 27.90053 | -82.04784 | 26399 ft | 442 kts | 338° |
| 2026-05-07 23:39 | 27.93012 | -82.05780 | 26669 ft | 444 kts | 338° |
| 2026-05-07 23:39 | 27.95972 | -82.06778 | 26944 ft | 445 kts | 338° |
| 2026-05-07 23:39 | 27.98951 | -82.07782 | 27206 ft | 447 kts | 338° |
| 2026-05-07 23:39 | 28.01940 | -82.08791 | 27468 ft | 449 kts | 338° |
| 2026-05-07 23:40 | 28.04938 | -82.09803 | 27729 ft | 451 kts | 338° |
| 2026-05-07 23:40 | 28.07986 | -82.10713 | 27975 ft | 457 kts | 343° |
| 2026-05-07 23:40 | 28.11163 | -82.11222 | 28225 ft | 463 kts | 348° |
| 2026-05-07 23:40 | 28.14383 | -82.11556 | 28503 ft | 466 kts | 349° |
| 2026-05-07 23:41 | 28.17618 | -82.11862 | 28735 ft | 468 kts | 349° |
| 2026-05-07 23:41 | 28.20867 | -82.12168 | 28972 ft | 470 kts | 349° |
| 2026-05-07 23:41 | 28.24139 | -82.12479 | 29213 ft | 472 kts | 349° |
| 2026-05-07 23:41 | 28.27413 | -82.12792 | 29457 ft | 473 kts | 349° |
| 2026-05-07 23:42 | 28.30698 | -82.13108 | 29692 ft | 475 kts | 349° |
| 2026-05-07 23:42 | 28.34003 | -82.13427 | 29917 ft | 477 kts | 349° |
| 2026-05-07 23:42 | 28.37307 | -82.13746 | 30124 ft | 478 kts | 349° |
| 2026-05-07 23:42 | 28.40635 | -82.14069 | 30309 ft | 480 kts | 349° |
| 2026-05-07 23:43 | 28.43966 | -82.14372 | 30536 ft | 482 kts | 351° |
| 2026-05-07 23:43 | 28.47344 | -82.14329 | 30802 ft | 489 kts | 359° |
| 2026-05-07 23:43 | 28.50719 | -82.13656 | 31084 ft | 498 kts | 9° |
| 2026-05-07 23:43 | 28.54041 | -82.12506 | 31362 ft | 500 kts | 12° |
| 2026-05-07 23:44 | 28.57334 | -82.11253 | 31644 ft | 499 kts | 12° |
| 2026-05-07 23:44 | 28.60626 | -82.09987 | 31919 ft | 498 kts | 12° |
| 2026-05-07 23:44 | 28.63909 | -82.08727 | 32194 ft | 498 kts | 12° |
| 2026-05-07 23:44 | 28.67186 | -82.07472 | 32473 ft | 497 kts | 12° |
| 2026-05-07 23:45 | 28.70465 | -82.06219 | 32758 ft | 496 kts | 12° |
| 2026-05-07 23:45 | 28.73683 | -82.04989 | 33040 ft | 495 kts | 11° |
| 2026-05-07 23:45 | 28.76999 | -82.03723 | 33239 ft | 496 kts | 11° |
| 2026-05-07 23:45 | 28.80225 | -82.02491 | 33478 ft | 496 kts | 11° |
| 2026-05-07 23:46 | 28.83501 | -82.01238 | 33745 ft | 495 kts | 11° |
| 2026-05-07 23:46 | 28.86760 | -81.99992 | 34007 ft | 494 kts | 11° |
| 2026-05-07 23:46 | 28.90010 | -81.98748 | 34225 ft | 493 kts | 11° |
| 2026-05-07 23:46 | 28.93264 | -81.97502 | 34440 ft | 492 kts | 11° |
| 2026-05-07 23:47 | 28.96551 | -81.96242 | 34648 ft | 492 kts | 11° |
| 2026-05-07 23:47 | 28.99796 | -81.94998 | 34857 ft | 491 kts | 11° |
| 2026-05-07 23:47 | 29.02991 | -81.93773 | 34992 ft | 492 kts | 11° |
| 2026-05-07 23:47 | 29.06237 | -81.92528 | 35004 ft | 492 kts | 11° |
| 2026-05-07 23:48 | 29.12733 | -81.90031 | 34999 ft | 492 kts | 11° |
| 2026-05-07 23:48 | 29.19224 | -81.87533 | 34998 ft | 492 kts | 11° |
| 2026-05-07 23:49 | 29.25716 | -81.85032 | 34996 ft | 492 kts | 11° |
| 2026-05-07 23:49 | 29.32211 | -81.82526 | 34998 ft | 493 kts | 11° |
| 2026-05-07 23:50 | 29.38719 | -81.80012 | 34983 ft | 494 kts | 11° |
| 2026-05-07 23:50 | 29.45233 | -81.77492 | 34983 ft | 494 kts | 11° |
| 2026-05-07 23:51 | 29.51748 | -81.74968 | 34980 ft | 494 kts | 11° |
| 2026-05-07 23:51 | 29.58268 | -81.72438 | 34992 ft | 495 kts | 10° |
| 2026-05-07 23:52 | 29.64794 | -81.69904 | 34977 ft | 495 kts | 10° |
| 2026-05-07 23:52 | 29.71330 | -81.67383 | 34974 ft | 495 kts | 9° |
| 2026-05-07 23:53 | 29.77871 | -81.64939 | 34960 ft | 494 kts | 9° |
| 2026-05-07 23:53 | 29.84409 | -81.62496 | 34966 ft | 494 kts | 9° |
| 2026-05-07 23:54 | 29.90948 | -81.60050 | 34956 ft | 495 kts | 9° |
| 2026-05-07 23:54 | 29.96405 | -81.58004 | 34954 ft | 496 kts | 9° |
| 2026-05-07 23:55 | 30.10073 | -81.52866 | 34949 ft | 492 kts | 9° |
| 2026-05-07 23:56 | 30.16574 | -81.50419 | 34946 ft | 492 kts | 9° |
| 2026-05-07 23:56 | 30.23086 | -81.47964 | 34943 ft | 492 kts | 9° |
| 2026-05-07 23:57 | 30.29583 | -81.45511 | 34944 ft | 492 kts | 9° |
| 2026-05-07 23:57 | 30.36091 | -81.43051 | 34933 ft | 492 kts | 9° |
| 2026-05-07 23:58 | 30.42667 | -81.41560 | 34937 ft | 472 kts | 353° |
| 2026-05-07 23:58 | 30.49173 | -81.41544 | 34936 ft | 467 kts | 350° |
| 2026-05-07 23:59 | 30.55670 | -81.41704 | 34969 ft | 467 kts | 349° |
| 2026-05-07 23:59 | 30.62121 | -81.41874 | 34971 ft | 467 kts | 349° |
| 2026-05-08 00:00 | 30.68625 | -81.42046 | 34992 ft | 467 kts | 349° |
| 2026-05-08 00:00 | 30.75119 | -81.42219 | 34966 ft | 467 kts | 349° |
| 2026-05-08 00:01 | 30.81626 | -81.42392 | 34958 ft | 467 kts | 349° |
| 2026-05-08 00:01 | 30.88122 | -81.42565 | 34951 ft | 467 kts | 349° |
| 2026-05-08 00:02 | 30.94627 | -81.42739 | 34943 ft | 467 kts | 349° |
| 2026-05-08 00:02 | 31.01126 | -81.42913 | 34944 ft | 468 kts | 349° |
| 2026-05-08 00:03 | 31.07654 | -81.43088 | 34941 ft | 469 kts | 349° |
| 2026-05-08 00:03 | 31.14178 | -81.43262 | 34941 ft | 469 kts | 349° |
| 2026-05-08 00:04 | 31.20707 | -81.43429 | 34970 ft | 471 kts | 351° |
| 2026-05-08 00:04 | 31.27318 | -81.42282 | 34972 ft | 497 kts | 10° |
| 2026-05-08 00:05 | 31.33780 | -81.39131 | 34970 ft | 508 kts | 15° |
| 2026-05-08 00:05 | 31.40192 | -81.35586 | 34962 ft | 510 kts | 17° |
| 2026-05-08 00:06 | 31.46597 | -81.32015 | 34953 ft | 510 kts | 16° |
| 2026-05-08 00:06 | 31.53018 | -81.28487 | 34958 ft | 509 kts | 15° |
| 2026-05-08 00:07 | 31.59440 | -81.24987 | 34934 ft | 509 kts | 15° |
| 2026-05-08 00:07 | 31.65863 | -81.21488 | 34928 ft | 509 kts | 15° |
| 2026-05-08 00:08 | 31.72238 | -81.18008 | 34910 ft | 509 kts | 15° |
| 2026-05-08 00:08 | 31.73326 | -81.17413 | 34904 ft | 509 kts | 15° |
| 2026-05-08 00:10 | 31.97767 | -81.04006 | 34888 ft | 508 kts | 14° |
| 2026-05-08 00:10 | 32.04176 | -81.00458 | 34911 ft | 509 kts | 15° |
| 2026-05-08 00:11 | 32.10581 | -80.96873 | 34891 ft | 510 kts | 15° |
| 2026-05-08 00:11 | 32.16999 | -80.93271 | 34913 ft | 511 kts | 15° |
| 2026-05-08 00:12 | 32.23373 | -80.89690 | 34918 ft | 510 kts | 15° |
| 2026-05-08 00:12 | 32.29804 | -80.86072 | 34941 ft | 508 kts | 14° |
| 2026-05-08 00:13 | 32.36202 | -80.82475 | 34914 ft | 510 kts | 14° |
| 2026-05-08 00:13 | 32.42612 | -80.78865 | 34916 ft | 511 kts | 14° |
| 2026-05-08 00:14 | 32.49031 | -80.75241 | 34916 ft | 511 kts | 14° |
| 2026-05-08 00:14 | 32.55442 | -80.71614 | 34939 ft | 511 kts | 14° |
| 2026-05-08 00:15 | 32.61876 | -80.67972 | 34911 ft | 513 kts | 14° |
| 2026-05-08 00:15 | 32.68280 | -80.64340 | 34906 ft | 514 kts | 14° |
| 2026-05-08 00:16 | 32.74718 | -80.60629 | 34897 ft | 515 kts | 15° |
| 2026-05-08 00:16 | 32.81139 | -80.56812 | 34947 ft | 516 kts | 15° |
| 2026-05-08 00:17 | 32.87565 | -80.52971 | 34898 ft | 517 kts | 15° |
| 2026-05-08 00:17 | 32.93998 | -80.49130 | 34898 ft | 517 kts | 15° |
| 2026-05-08 00:18 | 33.00427 | -80.45293 | 34898 ft | 517 kts | 15° |
| 2026-05-08 00:18 | 33.06852 | -80.41456 | 34888 ft | 517 kts | 15° |
| 2026-05-08 00:19 | 33.13283 | -80.37609 | 34888 ft | 517 kts | 15° |
| 2026-05-08 00:19 | 33.19709 | -80.33757 | 34887 ft | 517 kts | 15° |
| 2026-05-08 00:20 | 33.26134 | -80.29900 | 34888 ft | 517 kts | 15° |
| 2026-05-08 00:20 | 33.32569 | -80.26031 | 34901 ft | 517 kts | 15° |
| 2026-05-08 00:21 | 33.38997 | -80.22160 | 34880 ft | 518 kts | 15° |
| 2026-05-08 00:21 | 33.45446 | -80.18269 | 34884 ft | 518 kts | 15° |
| 2026-05-08 00:22 | 33.51880 | -80.14380 | 34890 ft | 518 kts | 15° |
| 2026-05-08 00:22 | 33.58314 | -80.10484 | 34902 ft | 518 kts | 15° |
| 2026-05-08 00:23 | 33.64750 | -80.06583 | 34884 ft | 519 kts | 15° |
| 2026-05-08 00:23 | 33.71198 | -80.02667 | 34875 ft | 519 kts | 15° |
| 2026-05-08 00:24 | 33.77647 | -79.98744 | 34859 ft | 519 kts | 15° |
| 2026-05-08 00:24 | 33.84089 | -79.94819 | 34859 ft | 520 kts | 15° |
| 2026-05-08 00:25 | 33.90554 | -79.90875 | 34854 ft | 521 kts | 15° |
| 2026-05-08 00:25 | 33.97024 | -79.86919 | 34850 ft | 522 kts | 15° |
| 2026-05-08 00:26 | 34.03499 | -79.82952 | 34850 ft | 522 kts | 15° |
| 2026-05-08 00:26 | 34.09931 | -79.79005 | 34846 ft | 522 kts | 15° |
| 2026-05-08 00:27 | 34.16408 | -79.75026 | 34846 ft | 522 kts | 15° |
| 2026-05-08 00:27 | 34.22885 | -79.71038 | 34850 ft | 522 kts | 15° |
| 2026-05-08 00:28 | 34.29360 | -79.67044 | 34855 ft | 522 kts | 15° |
| 2026-05-08 00:28 | 34.35834 | -79.63044 | 34855 ft | 522 kts | 14° |
| 2026-05-08 00:29 | 34.42302 | -79.59042 | 34860 ft | 522 kts | 14° |
| 2026-05-08 00:29 | 34.48769 | -79.55033 | 34857 ft | 522 kts | 14° |
| 2026-05-08 00:30 | 34.55240 | -79.51008 | 34910 ft | 523 kts | 15° |
| 2026-05-08 00:30 | 34.61639 | -79.46789 | 34887 ft | 523 kts | 17° |
| 2026-05-08 00:31 | 34.67975 | -79.42481 | 34866 ft | 522 kts | 17° |
| 2026-05-08 00:31 | 34.74318 | -79.38169 | 34897 ft | 523 kts | 17° |
| 2026-05-08 00:32 | 34.80670 | -79.33860 | 34914 ft | 522 kts | 16° |
| 2026-05-08 00:32 | 34.86995 | -79.29563 | 34904 ft | 519 kts | 16° |
| 2026-05-08 00:33 | 34.93294 | -79.25285 | 34897 ft | 518 kts | 16° |
| 2026-05-08 00:33 | 34.99597 | -79.21000 | 34895 ft | 519 kts | 16° |
| 2026-05-08 00:34 | 35.05900 | -79.16706 | 34912 ft | 520 kts | 16° |
| 2026-05-08 00:34 | 35.12225 | -79.12390 | 34907 ft | 522 kts | 16° |
| 2026-05-08 00:35 | 35.18563 | -79.08051 | 34935 ft | 522 kts | 17° |
| 2026-05-08 00:35 | 35.24895 | -79.03709 | 34931 ft | 522 kts | 17° |
| 2026-05-08 00:36 | 35.31229 | -78.99360 | 34936 ft | 524 kts | 16° |
| 2026-05-08 00:36 | 35.37601 | -78.94981 | 34920 ft | 525 kts | 16° |
| 2026-05-08 00:37 | 35.43970 | -78.90590 | 34938 ft | 526 kts | 16° |
| 2026-05-08 00:38 | 35.53527 | -78.83984 | 34937 ft | 526 kts | 16° |
| 2026-05-08 00:38 | 35.59900 | -78.79571 | 34937 ft | 526 kts | 16° |
| 2026-05-08 00:39 | 35.66270 | -78.75153 | 34934 ft | 526 kts | 16° |
| 2026-05-08 00:39 | 35.71568 | -78.71471 | 34951 ft | 526 kts | 16° |
| 2026-05-08 00:40 | 35.77950 | -78.67030 | 34911 ft | 528 kts | 15° |
| 2026-05-08 00:40 | 35.84346 | -78.62570 | 34927 ft | 528 kts | 15° |
| 2026-05-08 00:41 | 35.90741 | -78.58101 | 34948 ft | 528 kts | 15° |
| 2026-05-08 00:41 | 35.97130 | -78.53627 | 34974 ft | 528 kts | 15° |
| 2026-05-08 00:42 | 36.03521 | -78.49146 | 34957 ft | 529 kts | 15° |
| 2026-05-08 00:42 | 36.09927 | -78.44646 | 34958 ft | 529 kts | 15° |
| 2026-05-08 00:43 | 36.16328 | -78.40140 | 34953 ft | 529 kts | 15° |
| 2026-05-08 00:43 | 36.22727 | -78.35627 | 34943 ft | 530 kts | 15° |
| 2026-05-08 00:44 | 36.29138 | -78.31098 | 34944 ft | 531 kts | 15° |
| 2026-05-08 00:44 | 36.35551 | -78.26558 | 34939 ft | 531 kts | 15° |
| 2026-05-08 00:45 | 36.41912 | -78.21741 | 34971 ft | 540 kts | 19° |
| 2026-05-08 00:45 | 36.48148 | -78.16495 | 34931 ft | 542 kts | 20° |
| 2026-05-08 00:46 | 36.54362 | -78.11194 | 34926 ft | 542 kts | 20° |
| 2026-05-08 00:46 | 36.60598 | -78.05926 | 34999 ft | 541 kts | 20° |
| 2026-05-08 00:47 | 36.66838 | -78.00688 | 35008 ft | 541 kts | 20° |
| 2026-05-08 00:47 | 36.73079 | -77.95449 | 34987 ft | 541 kts | 20° |
| 2026-05-08 00:48 | 36.79311 | -77.90205 | 34980 ft | 541 kts | 20° |
| 2026-05-08 00:48 | 36.85507 | -77.84980 | 35016 ft | 541 kts | 20° |
| 2026-05-08 00:49 | 36.91735 | -77.79717 | 34948 ft | 541 kts | 20° |
| 2026-05-08 00:49 | 36.97967 | -77.74438 | 34941 ft | 541 kts | 20° |
| 2026-05-08 00:50 | 37.04201 | -77.69149 | 34950 ft | 541 kts | 20° |
| 2026-05-08 00:50 | 37.10429 | -77.63853 | 34964 ft | 541 kts | 20° |
| 2026-05-08 00:51 | 37.16657 | -77.58544 | 34922 ft | 541 kts | 20° |
| 2026-05-08 00:51 | 37.22871 | -77.53237 | 34959 ft | 541 kts | 20° |
| 2026-05-08 00:52 | 37.29088 | -77.47920 | 35002 ft | 541 kts | 21° |
| 2026-05-08 00:52 | 37.35299 | -77.42595 | 34945 ft | 540 kts | 21° |
| 2026-05-08 00:53 | 37.41509 | -77.37259 | 34933 ft | 540 kts | 21° |
| 2026-05-08 00:53 | 37.47712 | -77.31921 | 34933 ft | 540 kts | 21° |
| 2026-05-08 00:54 | 37.53910 | -77.26576 | 34943 ft | 540 kts | 21° |
| 2026-05-08 00:54 | 37.60091 | -77.21230 | 34915 ft | 538 kts | 21° |
| 2026-05-08 00:55 | 37.66271 | -77.15879 | 34937 ft | 539 kts | 21° |
| 2026-05-08 00:55 | 37.69397 | -77.13318 | 34934 ft | 528 kts | 15° |
| 2026-05-08 00:55 | 37.72594 | -77.11015 | 34943 ft | 528 kts | 15° |
| 2026-05-08 00:56 | 37.78997 | -77.06506 | 34950 ft | 526 kts | 14° |
| 2026-05-08 00:56 | 37.85416 | -77.02081 | 34952 ft | 526 kts | 14° |
| 2026-05-08 00:57 | 37.91848 | -76.97643 | 34952 ft | 526 kts | 14° |
| 2026-05-08 00:57 | 37.98261 | -76.93193 | 34933 ft | 525 kts | 15° |
| 2026-05-08 00:58 | 38.04659 | -76.88735 | 34928 ft | 524 kts | 15° |
| 2026-05-08 00:58 | 38.11043 | -76.84279 | 34921 ft | 524 kts | 15° |
| 2026-05-08 00:59 | 38.17444 | -76.79804 | 34929 ft | 525 kts | 17° |
| 2026-05-08 00:59 | 38.23767 | -76.75240 | 34919 ft | 532 kts | 23° |
| 2026-05-08 01:00 | 38.29675 | -76.69383 | 34906 ft | 541 kts | 29° |
| 2026-05-08 01:00 | 38.35447 | -76.63181 | 34929 ft | 544 kts | 30° |
| 2026-05-08 01:01 | 38.41188 | -76.56901 | 34915 ft | 543 kts | 31° |
| 2026-05-08 01:01 | 38.46922 | -76.50680 | 34928 ft | 541 kts | 30° |
| 2026-05-08 01:02 | 38.52681 | -76.44493 | 34926 ft | 541 kts | 30° |
| 2026-05-08 01:02 | 38.58447 | -76.38301 | 34940 ft | 541 kts | 31° |
| 2026-05-08 01:02 | 38.61315 | -76.35210 | 35053 ft | 540 kts | 31° |
| 2026-05-08 01:03 | 38.64192 | -76.32108 | 35178 ft | 542 kts | 31° |
| 2026-05-08 01:03 | 38.67074 | -76.28996 | 35344 ft | 542 kts | 31° |
| 2026-05-08 01:03 | 38.69957 | -76.25878 | 35546 ft | 542 kts | 31° |
| 2026-05-08 01:03 | 38.72833 | -76.22762 | 35740 ft | 542 kts | 31° |
| 2026-05-08 01:04 | 38.75710 | -76.19641 | 35937 ft | 541 kts | 31° |
| 2026-05-08 01:04 | 38.78577 | -76.16528 | 36181 ft | 540 kts | 31° |
| 2026-05-08 01:04 | 38.81445 | -76.13410 | 36349 ft | 540 kts | 32° |
| 2026-05-08 01:04 | 38.84310 | -76.10294 | 36524 ft | 540 kts | 32° |
| 2026-05-08 01:05 | 38.87167 | -76.07183 | 36690 ft | 540 kts | 32° |
| 2026-05-08 01:05 | 38.90029 | -76.04064 | 36872 ft | 540 kts | 32° |
| 2026-05-08 01:05 | 38.92861 | -76.00975 | 36920 ft | 542 kts | 32° |
| 2026-05-08 01:06 | 38.98604 | -75.94583 | 36928 ft | 552 kts | 34° |
| 2026-05-08 01:06 | 39.04290 | -75.87828 | 36895 ft | 561 kts | 36° |
| 2026-05-08 01:07 | 39.10018 | -75.80916 | 36889 ft | 566 kts | 36° |
| 2026-05-08 01:07 | 39.15761 | -75.74001 | 36924 ft | 565 kts | 36° |
| 2026-05-08 01:08 | 39.21512 | -75.67099 | 36878 ft | 566 kts | 36° |
| 2026-05-08 01:08 | 39.27317 | -75.60131 | 36893 ft | 566 kts | 36° |
| 2026-05-08 01:09 | 39.33045 | -75.53240 | 36876 ft | 566 kts | 36° |
| 2026-05-08 01:09 | 39.38804 | -75.46291 | 36876 ft | 567 kts | 36° |
| 2026-05-08 01:10 | 39.44576 | -75.39312 | 36873 ft | 568 kts | 36° |
| 2026-05-08 01:10 | 39.50345 | -75.32316 | 36873 ft | 568 kts | 36° |
| 2026-05-08 01:11 | 39.56111 | -75.25308 | 36878 ft | 568 kts | 36° |
| 2026-05-08 01:11 | 39.61875 | -75.18286 | 36868 ft | 569 kts | 36° |
| 2026-05-08 01:12 | 39.67641 | -75.11255 | 36871 ft | 568 kts | 36° |
| 2026-05-08 01:12 | 39.73549 | -75.04451 | 36848 ft | 566 kts | 34° |
| 2026-05-08 01:13 | 39.79521 | -74.97807 | 36872 ft | 565 kts | 33° |
| 2026-05-08 01:13 | 39.85486 | -74.91133 | 36877 ft | 565 kts | 34° |
| 2026-05-08 01:14 | 39.91562 | -74.84739 | 36936 ft | 559 kts | 29° |
| 2026-05-08 01:14 | 39.97868 | -74.78787 | 36878 ft | 560 kts | 27° |
| 2026-05-08 01:15 | 40.04037 | -74.72513 | 36878 ft | 570 kts | 39° |
| 2026-05-08 01:15 | 40.09559 | -74.65039 | 36861 ft | 574 kts | 41° |
| 2026-05-08 01:16 | 40.14935 | -74.57305 | 36865 ft | 575 kts | 42° |
| 2026-05-08 01:16 | 40.19858 | -74.49022 | 36863 ft | 585 kts | 58° |
| 2026-05-08 01:17 | 40.23060 | -74.39198 | 36882 ft | 589 kts | 68° |
| 2026-05-08 01:17 | 40.25762 | -74.29075 | 36889 ft | 590 kts | 70° |
| 2026-05-08 01:18 | 40.28353 | -74.18882 | 36909 ft | 589 kts | 70° |
| 2026-05-08 01:18 | 40.30962 | -74.08706 | 36902 ft | 590 kts | 70° |
| 2026-05-08 01:19 | 40.33599 | -73.98528 | 36842 ft | 590 kts | 70° |
| 2026-05-08 01:19 | 40.36241 | -73.88346 | 36880 ft | 590 kts | 70° |
| 2026-05-08 01:20 | 40.38874 | -73.78169 | 36885 ft | 590 kts | 70° |
| 2026-05-08 01:20 | 40.41500 | -73.67972 | 36896 ft | 590 kts | 71° |
| 2026-05-08 01:21 | 40.44116 | -73.57764 | 36881 ft | 591 kts | 71° |
| 2026-05-08 01:21 | 40.46724 | -73.47533 | 36881 ft | 591 kts | 71° |
| 2026-05-08 01:22 | 40.49321 | -73.37293 | 36878 ft | 591 kts | 71° |
| 2026-05-08 01:22 | 40.51906 | -73.27053 | 36862 ft | 590 kts | 71° |
| 2026-05-08 01:23 | 40.54049 | -73.18538 | 36919 ft | 590 kts | 71° |
| 2026-05-08 01:23 | 40.56618 | -73.08284 | 36867 ft | 590 kts | 72° |
| 2026-05-08 01:24 | 40.59179 | -72.98023 | 36862 ft | 591 kts | 72° |
| 2026-05-08 01:24 | 40.61730 | -72.87756 | 36866 ft | 590 kts | 72° |
| 2026-05-08 01:25 | 40.64271 | -72.77485 | 36877 ft | 590 kts | 72° |
| 2026-05-08 01:25 | 40.66801 | -72.67212 | 36928 ft | 590 kts | 72° |
| 2026-05-08 01:26 | 40.69326 | -72.56919 | 36859 ft | 590 kts | 72° |
| 2026-05-08 01:26 | 40.71838 | -72.46627 | 36872 ft | 590 kts | 72° |
| 2026-05-08 01:27 | 40.74337 | -72.36337 | 36873 ft | 590 kts | 72° |
| 2026-05-08 01:27 | 40.76828 | -72.26039 | 36873 ft | 589 kts | 72° |
| 2026-05-08 01:28 | 40.79364 | -72.15750 | 36872 ft | 589 kts | 71° |
| 2026-05-08 01:28 | 40.82061 | -72.05528 | 36881 ft | 591 kts | 71° |
| 2026-05-08 01:29 | 40.84790 | -71.95294 | 36878 ft | 591 kts | 71° |
| 2026-05-08 01:29 | 40.87494 | -71.85040 | 36873 ft | 591 kts | 71° |
| 2026-05-08 01:30 | 40.90168 | -71.74784 | 36875 ft | 590 kts | 71° |
| 2026-05-08 01:30 | 40.92829 | -71.64517 | 36900 ft | 590 kts | 71° |
| 2026-05-08 01:31 | 40.95514 | -71.54259 | 36829 ft | 590 kts | 71° |
| 2026-05-08 01:31 | 40.98223 | -71.44005 | 36862 ft | 589 kts | 71° |
| 2026-05-08 01:32 | 41.00890 | -71.33755 | 36861 ft | 589 kts | 73° |
| 2026-05-08 01:32 | 41.03190 | -71.23433 | 36857 ft | 588 kts | 76° |
| 2026-05-08 01:33 | 41.05362 | -71.12913 | 36868 ft | 588 kts | 76° |
| 2026-05-08 01:33 | 41.07530 | -71.02468 | 36853 ft | 588 kts | 76° |
| 2026-05-08 01:34 | 41.09726 | -70.92026 | 36851 ft | 588 kts | 76° |
| 2026-05-08 01:34 | 41.11926 | -70.81596 | 36841 ft | 588 kts | 76° |
| 2026-05-08 01:35 | 41.14118 | -70.71151 | 36829 ft | 587 kts | 76° |
| 2026-05-08 01:35 | 41.16292 | -70.60724 | 36827 ft | 587 kts | 76° |
| 2026-05-08 01:36 | 41.18445 | -70.50344 | 36822 ft | 587 kts | 76° |
| 2026-05-08 01:36 | 41.20602 | -70.39893 | 36825 ft | 586 kts | 76° |
| 2026-05-08 01:37 | 41.22748 | -70.29442 | 36821 ft | 586 kts | 76° |
| 2026-05-08 01:37 | 41.24883 | -70.18994 | 36788 ft | 586 kts | 77° |
| 2026-05-08 01:38 | 41.27098 | -70.08571 | 36854 ft | 587 kts | 70° |
| 2026-05-08 01:38 | 41.28825 | -70.03666 | 36824 ft | 586 kts | 58° |
| 2026-05-08 01:38 | 41.31186 | -69.99280 | 36823 ft | 581 kts | 45° |
| 2026-05-08 01:39 | 41.36798 | -69.91569 | 36821 ft | 580 kts | 40° |
| 2026-05-08 01:39 | 41.42666 | -69.84224 | 36859 ft | 579 kts | 39° |
| 2026-05-08 01:40 | 41.48575 | -69.76894 | 36817 ft | 581 kts | 39° |
| 2026-05-08 01:40 | 41.54453 | -69.69492 | 36815 ft | 581 kts | 40° |
| 2026-05-08 01:41 | 41.60312 | -69.62035 | 36827 ft | 581 kts | 40° |
| 2026-05-08 01:41 | 41.66157 | -69.54563 | 36821 ft | 582 kts | 40° |
| 2026-05-08 01:42 | 41.72014 | -69.47059 | 36806 ft | 583 kts | 40° |
| 2026-05-08 01:42 | 41.77869 | -69.39542 | 36826 ft | 584 kts | 40° |
| 2026-05-08 01:43 | 41.83734 | -69.31995 | 36824 ft | 585 kts | 40° |
| 2026-05-08 01:43 | 41.89594 | -69.24433 | 36827 ft | 585 kts | 40° |
| 2026-05-08 01:44 | 41.95452 | -69.16854 | 36811 ft | 585 kts | 41° |
| 2026-05-08 01:44 | 42.01325 | -69.09234 | 36830 ft | 587 kts | 41° |
| 2026-05-08 01:45 | 42.07197 | -69.01594 | 36884 ft | 587 kts | 41° |
| 2026-05-08 01:45 | 42.13033 | -68.93981 | 36832 ft | 588 kts | 41° |
| 2026-05-08 01:46 | 42.18904 | -68.86301 | 36835 ft | 588 kts | 41° |
| 2026-05-08 01:46 | 42.24780 | -68.78594 | 36835 ft | 589 kts | 41° |
| 2026-05-08 01:47 | 42.30649 | -68.70875 | 36830 ft | 590 kts | 41° |
| 2026-05-08 01:47 | 42.36524 | -68.63127 | 36829 ft | 590 kts | 41° |
| 2026-05-08 01:48 | 42.45321 | -68.51486 | 36779 ft | 590 kts | 42° |
| 2026-05-08 01:48 | 42.51185 | -68.43698 | 36829 ft | 591 kts | 42° |
| 2026-05-08 01:49 | 42.57058 | -68.35878 | 36835 ft | 591 kts | 42° |
| 2026-05-08 01:49 | 42.62921 | -68.28048 | 36828 ft | 591 kts | 42° |
| 2026-05-08 01:50 | 42.68780 | -68.20202 | 36822 ft | 591 kts | 42° |
| 2026-05-08 01:50 | 42.74638 | -68.12336 | 36824 ft | 593 kts | 43° |
| 2026-05-08 01:51 | 42.80469 | -68.04484 | 36823 ft | 594 kts | 43° |
| 2026-05-08 01:51 | 42.86337 | -67.96559 | 36825 ft | 594 kts | 43° |
| 2026-05-08 01:52 | 42.92196 | -67.88624 | 36817 ft | 594 kts | 43° |
| 2026-05-08 01:52 | 42.98047 | -67.80677 | 36815 ft | 594 kts | 43° |
| 2026-05-08 01:53 | 43.03897 | -67.72710 | 36813 ft | 594 kts | 43° |
| 2026-05-08 01:53 | 43.09741 | -67.64727 | 36811 ft | 594 kts | 43° |
| 2026-05-08 01:54 | 43.15582 | -67.56726 | 36812 ft | 594 kts | 44° |
| 2026-05-08 01:54 | 43.21422 | -67.48704 | 36806 ft | 594 kts | 44° |
| 2026-05-08 01:55 | 43.27254 | -67.40669 | 36804 ft | 594 kts | 44° |
| 2026-05-08 01:55 | 43.33077 | -67.32623 | 36803 ft | 594 kts | 44° |
| 2026-05-08 01:56 | 43.38907 | -67.24545 | 36802 ft | 595 kts | 44° |
| 2026-05-08 01:56 | 43.44726 | -67.16458 | 36803 ft | 595 kts | 44° |
| 2026-05-08 01:57 | 43.50545 | -67.08348 | 36795 ft | 595 kts | 44° |
| 2026-05-08 01:57 | 43.56191 | -67.00018 | 36797 ft | 595 kts | 56° |
| 2026-05-08 01:58 | 43.60662 | -66.90444 | 36805 ft | 593 kts | 61° |
| 2026-05-08 01:58 | 43.64875 | -66.80660 | 36788 ft | 593 kts | 62° |
| 2026-05-08 01:59 | 43.69017 | -66.70800 | 36764 ft | 594 kts | 63° |
| 2026-05-08 01:59 | 43.73179 | -66.60907 | 36787 ft | 596 kts | 63° |
| 2026-05-08 02:00 | 43.77356 | -66.51010 | 36767 ft | 596 kts | 63° |
| 2026-05-08 02:00 | 43.81536 | -66.41097 | 36764 ft | 596 kts | 63° |
| 2026-05-08 02:01 | 43.85704 | -66.31177 | 36771 ft | 596 kts | 63° |
| 2026-05-08 02:01 | 43.89862 | -66.21241 | 36755 ft | 595 kts | 63° |
| 2026-05-08 02:02 | 43.94008 | -66.11295 | 36706 ft | 595 kts | 64° |
| 2026-05-08 02:02 | 43.98153 | -66.01317 | 36756 ft | 598 kts | 64° |
| 2026-05-08 02:03 | 44.02302 | -65.91293 | 36753 ft | 599 kts | 64° |
| 2026-05-08 02:03 | 44.06446 | -65.81249 | 36749 ft | 599 kts | 64° |
| 2026-05-08 02:04 | 44.10578 | -65.71198 | 36746 ft | 599 kts | 64° |
| 2026-05-08 02:04 | 44.14678 | -65.61191 | 36742 ft | 599 kts | 64° |
| 2026-05-08 02:05 | 44.18818 | -65.51048 | 36746 ft | 598 kts | 64° |
| 2026-05-08 02:05 | 44.22900 | -65.41013 | 36746 ft | 601 kts | 65° |
| 2026-05-08 02:06 | 44.27018 | -65.30847 | 36744 ft | 603 kts | 65° |
| 2026-05-08 02:06 | 44.31143 | -65.20636 | 36739 ft | 603 kts | 65° |
| 2026-05-08 02:07 | 44.35254 | -65.10421 | 36736 ft | 603 kts | 65° |
| 2026-05-08 02:07 | 44.39356 | -65.00192 | 36736 ft | 603 kts | 65° |
| 2026-05-08 02:08 | 44.43450 | -64.89943 | 36720 ft | 604 kts | 65° |
| 2026-05-08 02:08 | 44.46847 | -64.81412 | 36670 ft | 604 kts | 65° |
| 2026-05-08 02:09 | 44.50929 | -64.71124 | 36717 ft | 604 kts | 66° |
| 2026-05-08 02:09 | 44.55034 | -64.60740 | 36701 ft | 605 kts | 66° |
| 2026-05-08 02:10 | 44.59077 | -64.50476 | 36699 ft | 605 kts | 66° |
| 2026-05-08 02:10 | 44.63138 | -64.40130 | 36695 ft | 605 kts | 66° |
| 2026-05-08 02:11 | 44.67192 | -64.29762 | 36696 ft | 606 kts | 66° |
| 2026-05-08 02:11 | 44.71234 | -64.19386 | 36694 ft | 607 kts | 66° |
| 2026-05-08 02:12 | 44.75283 | -64.08954 | 36694 ft | 606 kts | 66° |
| 2026-05-08 02:12 | 44.79314 | -63.98528 | 36701 ft | 607 kts | 66° |
| 2026-05-08 02:13 | 44.83347 | -63.88055 | 36705 ft | 608 kts | 66° |
| 2026-05-08 02:13 | 44.87375 | -63.77562 | 36708 ft | 609 kts | 66° |
| 2026-05-08 02:14 | 44.91392 | -63.67054 | 36708 ft | 609 kts | 66° |
| 2026-05-08 02:14 | 44.95405 | -63.56516 | 36714 ft | 610 kts | 66° |
| 2026-05-08 02:15 | 44.99411 | -63.45959 | 36668 ft | 609 kts | 66° |
| 2026-05-08 02:15 | 45.03401 | -63.35404 | 36725 ft | 608 kts | 66° |
| 2026-05-08 02:16 | 45.07381 | -63.24834 | 36708 ft | 609 kts | 66° |
| 2026-05-08 02:16 | 45.11352 | -63.14245 | 36708 ft | 609 kts | 66° |
| 2026-05-08 02:17 | 45.15310 | -63.03651 | 36713 ft | 609 kts | 66° |
| 2026-05-08 02:17 | 45.19262 | -62.93030 | 36706 ft | 609 kts | 66° |
| 2026-05-08 02:18 | 45.23183 | -62.82455 | 36704 ft | 610 kts | 66° |
| 2026-05-08 02:18 | 45.27115 | -62.71809 | 36719 ft | 609 kts | 66° |
| 2026-05-08 02:19 | 45.31039 | -62.61142 | 36711 ft | 609 kts | 66° |
| 2026-05-08 02:19 | 45.34955 | -62.50451 | 36706 ft | 610 kts | 67° |
| 2026-05-08 02:20 | 45.38858 | -62.39756 | 36701 ft | 610 kts | 67° |
| 2026-05-08 02:20 | 45.42757 | -62.29033 | 36702 ft | 610 kts | 67° |
| 2026-05-08 02:21 | 45.46642 | -62.18304 | 36696 ft | 610 kts | 67° |
| 2026-05-08 02:21 | 45.50521 | -62.07547 | 36639 ft | 609 kts | 67° |
| 2026-05-08 02:22 | 45.54377 | -61.96815 | 36702 ft | 608 kts | 67° |
| 2026-05-08 02:22 | 45.58226 | -61.86059 | 36696 ft | 609 kts | 67° |
| 2026-05-08 02:23 | 45.62068 | -61.75277 | 36690 ft | 609 kts | 67° |
| 2026-05-08 02:23 | 45.65893 | -61.64501 | 36685 ft | 608 kts | 67° |
| 2026-05-08 02:24 | 45.69712 | -61.53697 | 36684 ft | 609 kts | 67° |
| 2026-05-08 02:24 | 45.73520 | -61.42882 | 36690 ft | 609 kts | 67° |
| 2026-05-08 02:25 | 45.77318 | -61.32051 | 36662 ft | 608 kts | 67° |
| 2026-05-08 02:25 | 45.81101 | -61.21220 | 36681 ft | 608 kts | 66° |
| 2026-05-08 02:26 | 45.84874 | -61.10374 | 36677 ft | 608 kts | 66° |
| 2026-05-08 02:26 | 45.88637 | -60.99512 | 36674 ft | 608 kts | 67° |
| 2026-05-08 02:27 | 45.92383 | -60.88655 | 36679 ft | 608 kts | 67° |
| 2026-05-08 02:27 | 45.96126 | -60.77759 | 36674 ft | 607 kts | 67° |
| 2026-05-08 02:28 | 45.99853 | -60.66867 | 36675 ft | 607 kts | 67° |
| 2026-05-08 02:28 | 46.03547 | -60.56025 | 36676 ft | 607 kts | 67° |
| 2026-05-08 02:29 | 46.07251 | -60.45113 | 36671 ft | 606 kts | 67° |
| 2026-05-08 02:29 | 46.10939 | -60.34198 | 36669 ft | 606 kts | 67° |
| 2026-05-08 02:30 | 46.14619 | -60.23263 | 36666 ft | 606 kts | 68° |
| 2026-05-08 02:30 | 46.18293 | -60.12303 | 36675 ft | 607 kts | 68° |
| 2026-05-08 02:31 | 46.21957 | -60.01326 | 36672 ft | 607 kts | 68° |
| 2026-05-08 02:31 | 46.25613 | -59.90325 | 36676 ft | 607 kts | 68° |
| 2026-05-08 02:32 | 46.29251 | -59.79334 | 36686 ft | 606 kts | 67° |
| 2026-05-08 02:32 | 46.32878 | -59.68331 | 36680 ft | 606 kts | 67° |
| 2026-05-08 02:33 | 46.36496 | -59.57305 | 36686 ft | 606 kts | 67° |
| 2026-05-08 02:33 | 46.40100 | -59.46274 | 36688 ft | 606 kts | 68° |
| 2026-05-08 02:34 | 46.43696 | -59.35220 | 36691 ft | 607 kts | 67° |
| 2026-05-08 02:34 | 46.47291 | -59.24121 | 36697 ft | 608 kts | 68° |
| 2026-05-08 02:35 | 46.50875 | -59.13011 | 36629 ft | 607 kts | 67° |
| 2026-05-08 02:35 | 46.54430 | -59.01950 | 36708 ft | 603 kts | 67° |
| 2026-05-08 02:36 | 46.57962 | -58.90907 | 36694 ft | 602 kts | 67° |
| 2026-05-08 02:36 | 46.61474 | -58.79875 | 36710 ft | 601 kts | 67° |
| 2026-05-08 02:37 | 46.64955 | -58.68895 | 36710 ft | 601 kts | 67° |
| 2026-05-08 02:37 | 46.68445 | -58.57839 | 36710 ft | 601 kts | 68° |
| 2026-05-08 02:38 | 46.71925 | -58.46768 | 36714 ft | 601 kts | 68° |
| 2026-05-08 02:38 | 46.75394 | -58.35683 | 36677 ft | 601 kts | 67° |
| 2026-05-08 02:39 | 46.78851 | -58.24590 | 36719 ft | 601 kts | 67° |
| 2026-05-08 02:39 | 46.82300 | -58.13472 | 36720 ft | 601 kts | 67° |
| 2026-05-08 02:40 | 46.85736 | -58.02348 | 36721 ft | 601 kts | 68° |
| 2026-05-08 02:40 | 46.89160 | -57.91213 | 36729 ft | 601 kts | 67° |
| 2026-05-08 02:41 | 46.92580 | -57.80042 | 36725 ft | 602 kts | 68° |
| 2026-05-08 02:41 | 46.95987 | -57.68863 | 36735 ft | 602 kts | 68° |
| 2026-05-08 02:42 | 46.99384 | -57.57665 | 36690 ft | 601 kts | 67° |
| 2026-05-08 02:42 | 47.02760 | -57.46487 | 36736 ft | 600 kts | 67° |
| 2026-05-08 02:43 | 47.06125 | -57.35298 | 36744 ft | 599 kts | 67° |
| 2026-05-08 02:43 | 47.09471 | -57.24120 | 36744 ft | 599 kts | 67° |
| 2026-05-08 02:44 | 47.12813 | -57.12906 | 36764 ft | 599 kts | 67° |
| 2026-05-08 02:44 | 47.16127 | -57.01736 | 36759 ft | 602 kts | 67° |
| 2026-05-08 02:45 | 47.19464 | -56.90436 | 36753 ft | 603 kts | 68° |
| 2026-05-08 02:45 | 47.22790 | -56.79122 | 36719 ft | 603 kts | 68° |
| 2026-05-08 02:46 | 47.26099 | -56.67810 | 36744 ft | 602 kts | 66° |
| 2026-05-08 02:46 | 47.29407 | -56.56453 | 36744 ft | 604 kts | 66° |
| 2026-05-08 02:47 | 47.32707 | -56.45071 | 36733 ft | 604 kts | 67° |
| 2026-05-08 02:47 | 47.35992 | -56.33686 | 36734 ft | 604 kts | 66° |
| 2026-05-08 02:48 | 47.39269 | -56.22273 | 36724 ft | 604 kts | 66° |
| 2026-05-08 02:48 | 47.42535 | -56.10850 | 36711 ft | 604 kts | 67° |
| 2026-05-08 02:49 | 47.45791 | -55.99408 | 36711 ft | 604 kts | 67° |
| 2026-05-08 02:49 | 47.49014 | -55.88027 | 36708 ft | 599 kts | 66° |
| 2026-05-08 02:50 | 47.52211 | -55.76680 | 36729 ft | 597 kts | 66° |
| 2026-05-08 02:50 | 47.55395 | -55.65329 | 36726 ft | 596 kts | 67° |
| 2026-05-08 02:51 | 47.58562 | -55.53986 | 36762 ft | 596 kts | 66° |
| 2026-05-08 02:51 | 47.61727 | -55.42593 | 36788 ft | 599 kts | 66° |
| 2026-05-08 02:52 | 47.64891 | -55.31154 | 36791 ft | 600 kts | 66° |
| 2026-05-08 02:52 | 47.68045 | -55.19691 | 36803 ft | 600 kts | 66° |
| 2026-05-08 02:53 | 47.71183 | -55.08231 | 36854 ft | 599 kts | 66° |
| 2026-05-08 02:53 | 47.74284 | -54.96854 | 36868 ft | 599 kts | 66° |
| 2026-05-08 02:54 | 47.77399 | -54.85371 | 36850 ft | 598 kts | 66° |
| 2026-05-08 02:54 | 47.80498 | -54.73891 | 36956 ft | 599 kts | 66° |
| 2026-05-08 02:55 | 47.81543 | -54.70005 | 37107 ft | 599 kts | 66° |
| 2026-05-08 02:55 | 47.84627 | -54.58502 | 37464 ft | 598 kts | 66° |
| 2026-05-08 02:55 | 47.86166 | -54.52743 | 37621 ft | 598 kts | 66° |
| 2026-05-08 02:56 | 47.87698 | -54.46993 | 37770 ft | 598 kts | 66° |
| 2026-05-08 02:56 | 47.89232 | -54.41223 | 37962 ft | 598 kts | 66° |
| 2026-05-08 02:56 | 47.90760 | -54.35462 | 38096 ft | 598 kts | 66° |
| 2026-05-08 02:56 | 47.92282 | -54.29703 | 38237 ft | 594 kts | 65° |
| 2026-05-08 02:57 | 47.93787 | -54.23995 | 38533 ft | 591 kts | 65° |
| 2026-05-08 02:57 | 47.95284 | -54.18303 | 38747 ft | 588 kts | 65° |
| 2026-05-08 02:57 | 47.96773 | -54.12631 | 38933 ft | 586 kts | 65° |
| 2026-05-08 02:58 | 47.99733 | -54.01319 | 38857 ft | 585 kts | 65° |
| 2026-05-08 02:58 | 48.02682 | -53.89996 | 38858 ft | 585 kts | 65° |
| 2026-05-08 02:59 | 48.05625 | -53.78634 | 38866 ft | 587 kts | 65° |
| 2026-05-08 02:59 | 48.08564 | -53.67237 | 38865 ft | 588 kts | 65° |
| 2026-05-08 03:00 | 48.11490 | -53.55830 | 38872 ft | 588 kts | 66° |
| 2026-05-08 03:00 | 48.14407 | -53.44401 | 38868 ft | 588 kts | 65° |
| 2026-05-08 03:01 | 48.17296 | -53.33021 | 38886 ft | 589 kts | 65° |
| 2026-05-08 03:01 | 48.20192 | -53.21558 | 38889 ft | 588 kts | 65° |
| 2026-05-08 03:02 | 48.23080 | -53.10072 | 38895 ft | 588 kts | 65° |
| 2026-05-08 03:02 | 48.25954 | -52.98581 | 38894 ft | 589 kts | 65° |
| 2026-05-08 03:03 | 48.28831 | -52.87025 | 38900 ft | 592 kts | 65° |
| 2026-05-08 03:03 | 48.31700 | -52.75433 | 38911 ft | 592 kts | 65° |
| 2026-05-08 03:04 | 48.34557 | -52.63828 | 38911 ft | 592 kts | 65° |
| 2026-05-08 03:04 | 48.37407 | -52.52193 | 38917 ft | 594 kts | 65° |
| 2026-05-08 03:05 | 48.40253 | -52.40517 | 38933 ft | 595 kts | 65° |
| 2026-05-08 03:05 | 48.43092 | -52.28805 | 38933 ft | 595 kts | 65° |
| 2026-05-08 03:06 | 48.45917 | -52.17088 | 38941 ft | 595 kts | 65° |
| 2026-05-08 03:06 | 48.48733 | -52.05346 | 38958 ft | 597 kts | 65° |
| 2026-05-08 03:07 | 48.51608 | -51.93609 | 38958 ft | 596 kts | 64° |
| 2026-05-08 03:07 | 48.54638 | -51.81979 | 38963 ft | 595 kts | 63° |
| 2026-05-08 03:08 | 48.57683 | -51.70372 | 38962 ft | 593 kts | 63° |
| 2026-05-08 03:08 | 48.60677 | -51.58803 | 38981 ft | 591 kts | 63° |
| 2026-05-08 03:09 | 48.63639 | -51.47236 | 38982 ft | 589 kts | 63° |
| 2026-05-08 03:09 | 48.66560 | -51.35754 | 39001 ft | 589 kts | 63° |
| 2026-05-08 03:10 | 48.69487 | -51.24192 | 39009 ft | 587 kts | 64° |
| 2026-05-08 03:10 | 48.72396 | -51.12647 | 39010 ft | 587 kts | 64° |
| 2026-05-08 03:11 | 48.75292 | -51.01100 | 39015 ft | 587 kts | 64° |
| 2026-05-08 03:11 | 48.78178 | -50.89532 | 39042 ft | 587 kts | 64° |
| 2026-05-08 03:12 | 48.81047 | -50.77964 | 39016 ft | 585 kts | 65° |
| 2026-05-08 03:12 | 48.83886 | -50.66463 | 39046 ft | 581 kts | 64° |
| 2026-05-08 03:13 | 48.86707 | -50.54975 | 39064 ft | 580 kts | 64° |
| 2026-05-08 03:13 | 48.89513 | -50.43495 | 39065 ft | 580 kts | 65° |
| 2026-05-08 03:14 | 48.92307 | -50.32005 | 39071 ft | 580 kts | 65° |
| 2026-05-08 03:14 | 48.95090 | -50.20497 | 39085 ft | 580 kts | 65° |
| 2026-05-08 03:15 | 48.97863 | -50.08971 | 39081 ft | 580 kts | 65° |
| 2026-05-08 03:15 | 49.00626 | -49.97479 | 39088 ft | 576 kts | 65° |
| 2026-05-08 03:16 | 49.03470 | -49.86102 | 39101 ft | 574 kts | 64° |
| 2026-05-08 03:16 | 49.06333 | -49.74774 | 39101 ft | 570 kts | 64° |
| 2026-05-08 03:17 | 49.09163 | -49.63490 | 39107 ft | 569 kts | 64° |
| 2026-05-08 03:17 | 49.11957 | -49.52244 | 39118 ft | 565 kts | 64° |
| 2026-05-08 03:18 | 49.14723 | -49.41038 | 39122 ft | 564 kts | 64° |
| 2026-05-08 03:18 | 49.17476 | -49.29830 | 39135 ft | 564 kts | 64° |
| 2026-05-08 03:19 | 49.20221 | -49.18603 | 39141 ft | 563 kts | 65° |
| 2026-05-08 03:19 | 49.22930 | -49.07454 | 39132 ft | 557 kts | 65° |
| 2026-05-08 03:20 | 49.25618 | -48.96345 | 39157 ft | 556 kts | 65° |
| 2026-05-08 03:20 | 49.28291 | -48.85245 | 39153 ft | 555 kts | 66° |
| 2026-05-08 03:21 | 49.30944 | -48.74165 | 39164 ft | 548 kts | 66° |
| 2026-05-08 03:21 | 49.33532 | -48.63285 | 39169 ft | 542 kts | 66° |
| 2026-05-08 03:22 | 49.36108 | -48.52430 | 39176 ft | 541 kts | 66° |
| 2026-05-08 03:22 | 49.38669 | -48.41586 | 39182 ft | 540 kts | 66° |
| 2026-05-08 03:23 | 49.41216 | -48.30739 | 39201 ft | 538 kts | 67° |
| 2026-05-08 03:23 | 49.43726 | -48.19990 | 39191 ft | 534 kts | 68° |
| 2026-05-08 03:24 | 49.46219 | -48.09262 | 39201 ft | 532 kts | 68° |
| 2026-05-08 03:24 | 49.48700 | -47.98540 | 39201 ft | 532 kts | 68° |
| 2026-05-08 03:25 | 49.51169 | -47.87810 | 39213 ft | 532 kts | 68° |
| 2026-05-08 03:25 | 49.53598 | -47.77201 | 39206 ft | 528 kts | 69° |
| 2026-05-08 03:26 | 49.56017 | -47.66577 | 39217 ft | 524 kts | 68° |
| 2026-05-08 03:26 | 49.58417 | -47.55988 | 39217 ft | 523 kts | 69° |
| 2026-05-08 03:27 | 49.60804 | -47.45407 | 39211 ft | 523 kts | 69° |
| 2026-05-08 03:27 | 49.63175 | -47.34838 | 39213 ft | 520 kts | 70° |
| 2026-05-08 03:28 | 49.65526 | -47.24311 | 39231 ft | 518 kts | 70° |
| 2026-05-08 03:28 | 49.67863 | -47.13792 | 39233 ft | 518 kts | 70° |
| 2026-05-08 03:29 | 49.70195 | -47.03245 | 39231 ft | 519 kts | 70° |
| 2026-05-08 03:29 | 49.72515 | -46.92699 | 39231 ft | 518 kts | 70° |
| 2026-05-08 03:30 | 49.75977 | -46.76856 | 39236 ft | 518 kts | 70° |
| 2026-05-08 03:31 | 49.80539 | -46.55790 | 39244 ft | 517 kts | 70° |
| 2026-05-08 03:32 | 49.83937 | -46.39958 | 39258 ft | 516 kts | 71° |
| 2026-05-08 03:32 | 49.86190 | -46.29393 | 39255 ft | 516 kts | 71° |
| 2026-05-08 03:33 | 49.88430 | -46.18834 | 39242 ft | 516 kts | 71° |
| 2026-05-08 03:33 | 49.90663 | -46.08255 | 39255 ft | 516 kts | 71° |
| 2026-05-08 03:34 | 49.92886 | -45.97662 | 39249 ft | 516 kts | 71° |
| 2026-05-08 03:34 | 49.95102 | -45.87055 | 39262 ft | 516 kts | 71° |
| 2026-05-08 03:35 | 49.97305 | -45.76445 | 39253 ft | 516 kts | 71° |
| 2026-05-08 03:35 | 49.99498 | -45.65832 | 39253 ft | 516 kts | 71° |
| 2026-05-08 03:36 | 50.01445 | -45.56368 | 39254 ft | 514 kts | 72° |
| 2026-05-08 03:36 | 50.03608 | -45.45791 | 39258 ft | 513 kts | 72° |
| 2026-05-08 03:37 | 50.05775 | -45.35136 | 39261 ft | 513 kts | 72° |
| 2026-05-08 03:37 | 50.07905 | -45.24610 | 39266 ft | 513 kts | 72° |
| 2026-05-08 03:38 | 50.10039 | -45.14009 | 39272 ft | 513 kts | 72° |
| 2026-05-08 03:38 | 50.12162 | -45.03404 | 39261 ft | 513 kts | 72° |
| 2026-05-08 03:39 | 50.14273 | -44.92800 | 39274 ft | 513 kts | 72° |
| 2026-05-08 03:39 | 50.16376 | -44.82179 | 39260 ft | 513 kts | 73° |
| 2026-05-08 03:40 | 50.18471 | -44.71542 | 39287 ft | 513 kts | 73° |
| 2026-05-08 03:40 | 50.20557 | -44.60889 | 39272 ft | 513 kts | 73° |
| 2026-05-08 03:41 | 50.22632 | -44.50237 | 39273 ft | 513 kts | 73° |
| 2026-05-08 03:41 | 50.24693 | -44.39598 | 39279 ft | 511 kts | 73° |
| 2026-05-08 03:42 | 50.26743 | -44.28949 | 39281 ft | 511 kts | 73° |
| 2026-05-08 03:42 | 50.28781 | -44.18308 | 39285 ft | 511 kts | 73° |
| 2026-05-08 03:43 | 50.30813 | -44.07638 | 39274 ft | 512 kts | 73° |
| 2026-05-08 03:43 | 50.32833 | -43.96970 | 39287 ft | 512 kts | 73° |
| 2026-05-08 03:44 | 50.34844 | -43.86290 | 39282 ft | 512 kts | 74° |
| 2026-05-08 03:44 | 50.36846 | -43.75597 | 39288 ft | 512 kts | 73° |
| 2026-05-08 03:45 | 50.38837 | -43.64896 | 39290 ft | 512 kts | 74° |
| 2026-05-08 03:45 | 50.40819 | -43.54188 | 39292 ft | 512 kts | 74° |
| 2026-05-08 03:46 | 50.42793 | -43.43460 | 39299 ft | 511 kts | 73° |
| 2026-05-08 03:46 | 50.44747 | -43.32773 | 39301 ft | 509 kts | 73° |
| 2026-05-08 03:47 | 50.46676 | -43.22165 | 39316 ft | 509 kts | 73° |
| 2026-05-08 03:47 | 50.48609 | -43.11476 | 39299 ft | 509 kts | 73° |
| 2026-05-08 03:48 | 50.50532 | -43.00779 | 39318 ft | 509 kts | 73° |
| 2026-05-08 03:48 | 50.52444 | -42.90076 | 39316 ft | 509 kts | 73° |
| 2026-05-08 03:49 | 50.54349 | -42.79351 | 39308 ft | 509 kts | 73° |
| 2026-05-08 03:49 | 50.56247 | -42.68602 | 39308 ft | 510 kts | 73° |
| 2026-05-08 03:50 | 50.58134 | -42.57847 | 39308 ft | 510 kts | 74° |
| 2026-05-08 03:50 | 50.60013 | -42.47075 | 39314 ft | 510 kts | 74° |
| 2026-05-08 03:51 | 50.61882 | -42.36294 | 39324 ft | 511 kts | 73° |
| 2026-05-08 03:51 | 50.63743 | -42.25489 | 39320 ft | 512 kts | 73° |
| 2026-05-08 03:52 | 50.65598 | -42.14659 | 39319 ft | 512 kts | 74° |
| 2026-05-08 03:52 | 50.67443 | -42.03818 | 39319 ft | 512 kts | 74° |
| 2026-05-08 03:53 | 50.69277 | -41.92971 | 39322 ft | 512 kts | 74° |
| 2026-05-08 03:53 | 50.71102 | -41.82112 | 39323 ft | 513 kts | 74° |
| 2026-05-08 03:54 | 50.72923 | -41.71212 | 39322 ft | 514 kts | 74° |
| 2026-05-08 03:54 | 50.74736 | -41.60286 | 39327 ft | 514 kts | 74° |
| 2026-05-08 03:55 | 50.76537 | -41.49360 | 39327 ft | 514 kts | 74° |
| 2026-05-08 03:55 | 50.78329 | -41.38421 | 39329 ft | 514 kts | 74° |
| 2026-05-08 03:56 | 50.80109 | -41.27484 | 39327 ft | 514 kts | 74° |
| 2026-05-08 03:56 | 50.81881 | -41.16529 | 39327 ft | 514 kts | 74° |
| 2026-05-08 03:57 | 50.83638 | -41.05590 | 39330 ft | 512 kts | 74° |
| 2026-05-08 03:57 | 50.85370 | -40.94734 | 39342 ft | 512 kts | 74° |
| 2026-05-08 03:58 | 50.87103 | -40.83802 | 39330 ft | 513 kts | 74° |
| 2026-05-08 03:58 | 50.88828 | -40.72849 | 39333 ft | 513 kts | 74° |
| 2026-05-08 03:59 | 50.90544 | -40.61879 | 39333 ft | 513 kts | 74° |
| 2026-05-08 03:59 | 50.92251 | -40.50891 | 39333 ft | 513 kts | 74° |
| 2026-05-08 04:00 | 50.93948 | -40.39897 | 39337 ft | 514 kts | 74° |
| 2026-05-08 04:00 | 50.95639 | -40.28866 | 39336 ft | 516 kts | 74° |
| 2026-05-08 04:01 | 50.97325 | -40.17794 | 39339 ft | 516 kts | 74° |
| 2026-05-08 04:01 | 50.98998 | -40.06727 | 39333 ft | 516 kts | 74° |
| 2026-05-08 04:02 | 51.00646 | -39.95671 | 39356 ft | 514 kts | 74° |
| 2026-05-08 04:02 | 51.02249 | -39.84598 | 39336 ft | 515 kts | 74° |
| 2026-05-08 04:03 | 51.03838 | -39.73481 | 39344 ft | 516 kts | 74° |
| 2026-05-08 04:03 | 51.06208 | -39.56786 | 39344 ft | 516 kts | 75° |
| 2026-05-08 04:04 | 51.07777 | -39.45657 | 39372 ft | 516 kts | 74° |
| 2026-05-08 04:04 | 51.09341 | -39.34479 | 39352 ft | 520 kts | 74° |
| 2026-05-08 04:05 | 51.10902 | -39.23236 | 39336 ft | 521 kts | 74° |
| 2026-05-08 04:05 | 51.12452 | -39.11984 | 39352 ft | 521 kts | 75° |
| 2026-05-08 04:06 | 51.13993 | -39.00715 | 39354 ft | 521 kts | 75° |
| 2026-05-08 04:06 | 51.15521 | -38.89447 | 39347 ft | 521 kts | 73° |
| 2026-05-08 04:07 | 51.17038 | -38.78181 | 39347 ft | 520 kts | 74° |
| 2026-05-08 04:07 | 51.18516 | -38.67118 | 39347 ft | 520 kts | 74° |
| 2026-05-08 04:08 | 51.20012 | -38.55827 | 39347 ft | 520 kts | 74° |
| 2026-05-08 04:08 | 51.21246 | -38.46449 | 39364 ft | 520 kts | 73° |
| 2026-05-08 04:09 | 51.22955 | -38.33358 | 39352 ft | 518 kts | 73° |
| 2026-05-08 04:09 | 51.24173 | -38.23945 | 39351 ft | 517 kts | 73° |
| 2026-05-08 04:10 | 51.25620 | -38.12697 | 39357 ft | 517 kts | 73° |
| 2026-05-08 04:10 | 51.27054 | -38.01450 | 39358 ft | 517 kts | 73° |
| 2026-05-08 04:11 | 51.28470 | -37.90255 | 39362 ft | 517 kts | 73° |
| 2026-05-08 04:11 | 51.29890 | -37.78928 | 39360 ft | 517 kts | 73° |
| 2026-05-08 04:12 | 51.31281 | -37.67747 | 39357 ft | 515 kts | 73° |
| 2026-05-08 04:12 | 51.32664 | -37.56531 | 39362 ft | 515 kts | 73° |
| 2026-05-08 04:13 | 51.34039 | -37.45297 | 39384 ft | 515 kts | 73° |
| 2026-05-08 04:13 | 51.35404 | -37.34058 | 39360 ft | 516 kts | 73° |
| 2026-05-08 04:14 | 51.36761 | -37.22782 | 39360 ft | 516 kts | 73° |
| 2026-05-08 04:14 | 51.38104 | -37.11514 | 39364 ft | 516 kts | 73° |
| 2026-05-08 04:15 | 51.39440 | -37.00215 | 39365 ft | 516 kts | 73° |
| 2026-05-08 04:15 | 51.40762 | -36.88929 | 39376 ft | 515 kts | 73° |
| 2026-05-08 04:16 | 51.42071 | -36.77656 | 39369 ft | 515 kts | 73° |
| 2026-05-08 04:16 | 51.43369 | -36.66382 | 39373 ft | 515 kts | 73° |
| 2026-05-08 04:17 | 51.44658 | -36.55093 | 39374 ft | 514 kts | 73° |
| 2026-05-08 04:17 | 51.45931 | -36.43830 | 39372 ft | 513 kts | 73° |
| 2026-05-08 04:18 | 51.47189 | -36.32599 | 39376 ft | 512 kts | 73° |
| 2026-05-08 04:18 | 51.48441 | -36.21340 | 39376 ft | 512 kts | 73° |
| 2026-05-08 04:19 | 51.49680 | -36.10078 | 39368 ft | 513 kts | 73° |
| 2026-05-08 04:19 | 51.50909 | -35.98809 | 39371 ft | 513 kts | 73° |
| 2026-05-08 04:20 | 51.52123 | -35.87556 | 39372 ft | 511 kts | 73° |
| 2026-05-08 04:20 | 51.53324 | -35.76326 | 39371 ft | 510 kts | 73° |
| 2026-05-08 04:21 | 51.54514 | -35.65099 | 39376 ft | 510 kts | 73° |
| 2026-05-08 04:21 | 51.55694 | -35.53870 | 39372 ft | 510 kts | 73° |
| 2026-05-08 04:22 | 51.56863 | -35.42633 | 39406 ft | 510 kts | 73° |
| 2026-05-08 04:22 | 51.58009 | -35.31464 | 39378 ft | 505 kts | 73° |
| 2026-05-08 04:23 | 51.59143 | -35.20342 | 39378 ft | 503 kts | 73° |
| 2026-05-08 04:23 | 51.60265 | -35.09239 | 39377 ft | 503 kts | 73° |
| 2026-05-08 04:24 | 51.61377 | -34.98136 | 39376 ft | 503 kts | 73° |
| 2026-05-08 04:24 | 51.62478 | -34.87016 | 39379 ft | 503 kts | 73° |
| 2026-05-08 04:25 | 51.63566 | -34.75906 | 39376 ft | 502 kts | 73° |
| 2026-05-08 04:25 | 51.64644 | -34.64791 | 39377 ft | 502 kts | 73° |
| 2026-05-08 04:26 | 51.65711 | -34.53675 | 39377 ft | 503 kts | 73° |
| 2026-05-08 04:26 | 51.66769 | -34.42545 | 39379 ft | 503 kts | 73° |
| 2026-05-08 04:27 | 51.67817 | -34.31406 | 39376 ft | 504 kts | 73° |
| 2026-05-08 04:27 | 51.68852 | -34.20297 | 39389 ft | 505 kts | 73° |
| 2026-05-08 04:28 | 51.69888 | -34.09036 | 39376 ft | 505 kts | 73° |
| 2026-05-08 04:28 | 51.70908 | -33.97836 | 39376 ft | 505 kts | 73° |
| 2026-05-08 04:29 | 51.71909 | -33.86714 | 39409 ft | 505 kts | 74° |
| 2026-05-08 04:29 | 51.72906 | -33.75524 | 39376 ft | 503 kts | 74° |
| 2026-05-08 04:30 | 51.73889 | -33.64354 | 39380 ft | 503 kts | 74° |
| 2026-05-08 04:30 | 51.74864 | -33.53171 | 39379 ft | 503 kts | 74° |
| 2026-05-08 04:31 | 51.75828 | -33.41981 | 39382 ft | 503 kts | 74° |
| 2026-05-08 04:31 | 51.76781 | -33.30791 | 39391 ft | 503 kts | 75° |
| 2026-05-08 04:32 | 51.77720 | -33.19620 | 39377 ft | 501 kts | 75° |
| 2026-05-08 04:32 | 51.78647 | -33.08470 | 39377 ft | 501 kts | 75° |
| 2026-05-08 04:33 | 51.79564 | -32.97321 | 39381 ft | 501 kts | 75° |
| 2026-05-08 04:33 | 51.80469 | -32.86180 | 39372 ft | 500 kts | 75° |
| 2026-05-08 04:34 | 51.81362 | -32.75039 | 39376 ft | 499 kts | 75° |
| 2026-05-08 04:34 | 51.82244 | -32.63920 | 39372 ft | 499 kts | 75° |
| 2026-05-08 04:35 | 51.83115 | -32.52803 | 39374 ft | 499 kts | 75° |
| 2026-05-08 04:35 | 51.83975 | -32.41683 | 39371 ft | 499 kts | 75° |
| 2026-05-08 04:36 | 51.84825 | -32.30548 | 39402 ft | 499 kts | 76° |
| 2026-05-08 04:36 | 51.85666 | -32.19396 | 39363 ft | 500 kts | 76° |
| 2026-05-08 04:37 | 51.86497 | -32.08235 | 39379 ft | 500 kts | 76° |
| 2026-05-08 04:37 | 51.87317 | -31.97062 | 39361 ft | 500 kts | 76° |
| 2026-05-08 04:38 | 51.88126 | -31.85889 | 39360 ft | 500 kts | 76° |
| 2026-05-08 04:38 | 51.88926 | -31.74695 | 39369 ft | 500 kts | 76° |
| 2026-05-08 04:39 | 51.89713 | -31.63526 | 39359 ft | 500 kts | 76° |
| 2026-05-08 04:39 | 51.90490 | -31.52350 | 39356 ft | 500 kts | 76° |
| 2026-05-08 04:40 | 51.91258 | -31.41163 | 39361 ft | 500 kts | 76° |
| 2026-05-08 04:40 | 51.92014 | -31.29969 | 39361 ft | 500 kts | 77° |
| 2026-05-08 04:41 | 51.92755 | -31.18853 | 39358 ft | 500 kts | 77° |
| 2026-05-08 04:41 | 51.93490 | -31.07659 | 39353 ft | 500 kts | 77° |
| 2026-05-08 04:42 | 51.94215 | -30.96450 | 39364 ft | 500 kts | 77° |
| 2026-05-08 04:42 | 51.94934 | -30.85163 | 39355 ft | 500 kts | 77° |
| 2026-05-08 04:43 | 51.95638 | -30.73949 | 39374 ft | 500 kts | 77° |
| 2026-05-08 04:43 | 51.96328 | -30.62757 | 39346 ft | 499 kts | 77° |
| 2026-05-08 04:44 | 51.97004 | -30.51639 | 39346 ft | 498 kts | 77° |
| 2026-05-08 04:44 | 51.97674 | -30.40461 | 39347 ft | 498 kts | 77° |
| 2026-05-08 04:45 | 51.98333 | -30.29270 | 39341 ft | 498 kts | 77° |
| 2026-05-08 04:45 | 51.98982 | -30.18078 | 39357 ft | 499 kts | 78° |
| 2026-05-08 04:46 | 51.99619 | -30.06885 | 39335 ft | 498 kts | 78° |
| 2026-05-08 04:46 | 52.00215 | -29.95689 | 39336 ft | 499 kts | 79° |
| 2026-05-08 04:47 | 52.00689 | -29.84446 | 39330 ft | 499 kts | 79° |
| 2026-05-08 04:47 | 52.01125 | -29.73191 | 39330 ft | 500 kts | 79° |
| 2026-05-08 04:48 | 52.01560 | -29.61940 | 39334 ft | 499 kts | 79° |
| 2026-05-08 04:48 | 52.01992 | -29.50699 | 39329 ft | 498 kts | 79° |
| 2026-05-08 04:49 | 52.02417 | -29.39467 | 39321 ft | 499 kts | 80° |
| 2026-05-08 04:49 | 52.02831 | -29.28227 | 39324 ft | 499 kts | 80° |
| 2026-05-08 04:50 | 52.03235 | -29.16991 | 39317 ft | 499 kts | 80° |
| 2026-05-08 04:50 | 52.03627 | -29.05747 | 39322 ft | 499 kts | 80° |
| 2026-05-08 04:51 | 52.04009 | -28.94498 | 39314 ft | 499 kts | 81° |
| 2026-05-08 04:51 | 52.04380 | -28.83230 | 39314 ft | 500 kts | 81° |
| 2026-05-08 04:52 | 52.04741 | -28.71954 | 39310 ft | 499 kts | 81° |
| 2026-05-08 04:52 | 52.05032 | -28.62593 | 39312 ft | 499 kts | 81° |
| 2026-05-08 04:53 | 52.05430 | -28.49410 | 39314 ft | 500 kts | 81° |
| 2026-05-08 04:53 | 52.05756 | -28.38212 | 39303 ft | 500 kts | 81° |
| 2026-05-08 04:54 | 52.06074 | -28.26928 | 39305 ft | 500 kts | 81° |
| 2026-05-08 04:54 | 52.06332 | -28.17474 | 39304 ft | 500 kts | 82° |
| 2026-05-08 04:55 | 52.06631 | -28.06172 | 39330 ft | 501 kts | 82° |
| 2026-05-08 04:55 | 52.06919 | -27.94877 | 39295 ft | 500 kts | 82° |
| 2026-05-08 04:56 | 52.07193 | -27.83646 | 39294 ft | 500 kts | 82° |
| 2026-05-08 04:56 | 52.07459 | -27.72350 | 39289 ft | 500 kts | 82° |
| 2026-05-08 04:57 | 52.07714 | -27.61048 | 39291 ft | 500 kts | 82° |
| 2026-05-08 04:57 | 52.07959 | -27.49742 | 39307 ft | 500 kts | 83° |
| 2026-05-08 04:58 | 52.08193 | -27.38438 | 39281 ft | 500 kts | 83° |
| 2026-05-08 04:58 | 52.08415 | -27.27132 | 39279 ft | 500 kts | 83° |
| 2026-05-08 04:59 | 52.08627 | -27.15818 | 39279 ft | 501 kts | 83° |
| 2026-05-08 04:59 | 52.08829 | -27.04511 | 39272 ft | 501 kts | 83° |
| 2026-05-08 05:00 | 52.09020 | -26.93176 | 39281 ft | 502 kts | 83° |
| 2026-05-08 05:00 | 52.09200 | -26.81837 | 39267 ft | 502 kts | 83° |
| 2026-05-08 05:01 | 52.09369 | -26.70482 | 39266 ft | 502 kts | 84° |
| 2026-05-08 05:01 | 52.09527 | -26.59129 | 39259 ft | 502 kts | 84° |
| 2026-05-08 05:02 | 52.09674 | -26.47766 | 39263 ft | 502 kts | 84° |
| 2026-05-08 05:02 | 52.09811 | -26.36407 | 39263 ft | 503 kts | 84° |
| 2026-05-08 05:03 | 52.09937 | -26.25028 | 39259 ft | 503 kts | 84° |
| 2026-05-08 05:03 | 52.10052 | -26.13655 | 39250 ft | 503 kts | 84° |
| 2026-05-08 05:04 | 52.10155 | -26.02338 | 39248 ft | 503 kts | 84° |
| 2026-05-08 05:04 | 52.10248 | -25.90964 | 39243 ft | 504 kts | 85° |
| 2026-05-08 05:05 | 52.10331 | -25.79564 | 39247 ft | 505 kts | 85° |
| 2026-05-08 05:05 | 52.10402 | -25.68145 | 39232 ft | 505 kts | 85° |
| 2026-05-08 05:06 | 52.10462 | -25.56733 | 39238 ft | 505 kts | 85° |
| 2026-05-08 05:06 | 52.10511 | -25.45316 | 39239 ft | 505 kts | 85° |
| 2026-05-08 05:07 | 52.10549 | -25.33896 | 39243 ft | 505 kts | 85° |
| 2026-05-08 05:07 | 52.10577 | -25.22483 | 39230 ft | 505 kts | 85° |
| 2026-05-08 05:08 | 52.10593 | -25.11032 | 39225 ft | 506 kts | 85° |
| 2026-05-08 05:08 | 52.10598 | -24.99602 | 39225 ft | 506 kts | 86° |
| 2026-05-08 05:09 | 52.10592 | -24.88165 | 39220 ft | 506 kts | 86° |
| 2026-05-08 05:09 | 52.10575 | -24.76720 | 39226 ft | 506 kts | 86° |
| 2026-05-08 05:10 | 52.10529 | -24.59538 | 39215 ft | 507 kts | 86° |
| 2026-05-08 05:11 | 52.10484 | -24.48058 | 39209 ft | 507 kts | 86° |
| 2026-05-08 05:11 | 52.10428 | -24.36571 | 39211 ft | 508 kts | 86° |
| 2026-05-08 05:12 | 52.10360 | -24.25094 | 39215 ft | 508 kts | 87° |
| 2026-05-08 05:12 | 52.10282 | -24.13612 | 39200 ft | 508 kts | 87° |
| 2026-05-08 05:13 | 52.10193 | -24.02120 | 39197 ft | 508 kts | 87° |
| 2026-05-08 05:13 | 52.10092 | -23.90623 | 39195 ft | 508 kts | 87° |
| 2026-05-08 05:14 | 52.09980 | -23.79132 | 39184 ft | 508 kts | 87° |
| 2026-05-08 05:14 | 52.09857 | -23.67640 | 39191 ft | 508 kts | 88° |
| 2026-05-08 05:15 | 52.09723 | -23.56142 | 39186 ft | 509 kts | 88° |
| 2026-05-08 05:15 | 52.09577 | -23.44626 | 39187 ft | 509 kts | 88° |
| 2026-05-08 05:16 | 52.09420 | -23.33116 | 39174 ft | 509 kts | 88° |
| 2026-05-08 05:16 | 52.09252 | -23.21671 | 39176 ft | 509 kts | 88° |
| 2026-05-08 05:17 | 52.09073 | -23.10165 | 39175 ft | 509 kts | 89° |
| 2026-05-08 05:17 | 52.08882 | -22.98649 | 39173 ft | 509 kts | 89° |
| 2026-05-08 05:18 | 52.08680 | -22.87144 | 39161 ft | 509 kts | 89° |
| 2026-05-08 05:18 | 52.08467 | -22.75634 | 39160 ft | 509 kts | 89° |
| 2026-05-08 05:19 | 52.08243 | -22.64116 | 39174 ft | 509 kts | 89° |
| 2026-05-08 05:19 | 52.08008 | -22.52610 | 39163 ft | 510 kts | 89° |
| 2026-05-08 05:20 | 52.07761 | -22.41076 | 39154 ft | 511 kts | 90° |
| 2026-05-08 05:20 | 52.07502 | -22.29537 | 39145 ft | 512 kts | 89° |
| 2026-05-08 05:21 | 52.07231 | -22.17970 | 39149 ft | 512 kts | 89° |
| 2026-05-08 05:21 | 52.06950 | -22.06416 | 39151 ft | 512 kts | 90° |
| 2026-05-08 05:22 | 52.06657 | -21.94838 | 39137 ft | 513 kts | 90° |
| 2026-05-08 05:22 | 52.06352 | -21.83259 | 39131 ft | 513 kts | 91° |
| 2026-05-08 05:23 | 52.06035 | -21.71685 | 39134 ft | 513 kts | 90° |
| 2026-05-08 05:23 | 52.05707 | -21.60110 | 39133 ft | 513 kts | 90° |
| 2026-05-08 05:24 | 52.05368 | -21.48523 | 39126 ft | 513 kts | 90° |
| 2026-05-08 05:24 | 52.05017 | -21.36934 | 39121 ft | 514 kts | 91° |
| 2026-05-08 05:25 | 52.04654 | -21.25329 | 39116 ft | 514 kts | 91° |
| 2026-05-08 05:25 | 52.04279 | -21.13708 | 39119 ft | 515 kts | 91° |
| 2026-05-08 05:26 | 52.03896 | -21.02160 | 39122 ft | 516 kts | 92° |
| 2026-05-08 05:26 | 52.03499 | -20.90534 | 39112 ft | 516 kts | 92° |
| 2026-05-08 05:27 | 52.03089 | -20.78898 | 39105 ft | 517 kts | 91° |
| 2026-05-08 05:27 | 52.02667 | -20.67284 | 39105 ft | 516 kts | 92° |
| 2026-05-08 05:28 | 52.02231 | -20.55557 | 39091 ft | 516 kts | 92° |
| 2026-05-08 05:28 | 52.01788 | -20.43929 | 39093 ft | 515 kts | 92° |
| 2026-05-08 05:29 | 52.01335 | -20.32362 | 39095 ft | 517 kts | 93° |
| 2026-05-08 05:29 | 52.00868 | -20.20722 | 39095 ft | 517 kts | 92° |
| 2026-05-08 05:30 | 52.00388 | -20.09102 | 39071 ft | 517 kts | 92° |
| 2026-05-08 05:30 | 51.99466 | -19.97541 | 39081 ft | 518 kts | 102° |
| 2026-05-08 05:31 | 51.97647 | -19.86226 | 39081 ft | 518 kts | 105° |
| 2026-05-08 05:31 | 51.95650 | -19.74998 | 39076 ft | 519 kts | 106° |
| 2026-05-08 05:32 | 51.93625 | -19.63794 | 39079 ft | 517 kts | 106° |
| 2026-05-08 05:32 | 51.91608 | -19.52596 | 39079 ft | 518 kts | 106° |
| 2026-05-08 05:33 | 51.89593 | -19.41409 | 39069 ft | 518 kts | 106° |
| 2026-05-08 05:33 | 51.87567 | -19.30211 | 39073 ft | 518 kts | 107° |
| 2026-05-08 05:34 | 51.85535 | -19.19048 | 39064 ft | 519 kts | 107° |
| 2026-05-08 05:34 | 51.83490 | -19.07890 | 39062 ft | 517 kts | 107° |
| 2026-05-08 05:35 | 51.81433 | -18.96739 | 39061 ft | 518 kts | 107° |
| 2026-05-08 05:35 | 51.79372 | -18.85628 | 39055 ft | 517 kts | 107° |
| 2026-05-08 05:36 | 51.77306 | -18.74562 | 39059 ft | 518 kts | 108° |
| 2026-05-08 05:36 | 51.75219 | -18.63444 | 39042 ft | 518 kts | 108° |
| 2026-05-08 05:37 | 51.73109 | -18.52274 | 39050 ft | 517 kts | 108° |
| 2026-05-08 05:37 | 51.71013 | -18.41239 | 39051 ft | 518 kts | 108° |
| 2026-05-08 05:38 | 51.68898 | -18.30171 | 39043 ft | 517 kts | 108° |
| 2026-05-08 05:38 | 51.66766 | -18.19082 | 39037 ft | 518 kts | 108° |
| 2026-05-08 05:39 | 51.64626 | -18.08010 | 39031 ft | 518 kts | 109° |
| 2026-05-08 05:39 | 51.62479 | -17.96967 | 39026 ft | 517 kts | 109° |
| 2026-05-08 05:40 | 51.60322 | -17.85939 | 39036 ft | 517 kts | 109° |
| 2026-05-08 05:40 | 51.58156 | -17.74928 | 39021 ft | 516 kts | 109° |
| 2026-05-08 05:41 | 51.56346 | -17.65772 | 39021 ft | 517 kts | 109° |
| 2026-05-08 05:41 | 51.54162 | -17.54782 | 39025 ft | 516 kts | 109° |
| 2026-05-08 05:42 | 51.51968 | -17.43809 | 39015 ft | 515 kts | 109° |
| 2026-05-08 05:42 | 51.49770 | -17.32872 | 39014 ft | 515 kts | 109° |
| 2026-05-08 05:43 | 51.47561 | -17.21943 | 39015 ft | 514 kts | 110° |
| 2026-05-08 05:43 | 51.45345 | -17.11043 | 39017 ft | 514 kts | 110° |
| 2026-05-08 05:44 | 51.43122 | -17.00163 | 39017 ft | 513 kts | 110° |
| 2026-05-08 05:44 | 51.40890 | -16.89303 | 39008 ft | 512 kts | 110° |
| 2026-05-08 05:45 | 51.38657 | -16.78496 | 39007 ft | 511 kts | 110° |
| 2026-05-08 05:45 | 51.36412 | -16.67693 | 38999 ft | 511 kts | 110° |
| 2026-05-08 05:46 | 51.34157 | -16.56899 | 38988 ft | 511 kts | 110° |
| 2026-05-08 05:46 | 51.31898 | -16.46137 | 38999 ft | 510 kts | 110° |
| 2026-05-08 05:47 | 51.29634 | -16.35413 | 38988 ft | 509 kts | 111° |
| 2026-05-08 05:47 | 51.27364 | -16.24718 | 38988 ft | 509 kts | 111° |
| 2026-05-08 05:48 | 51.25081 | -16.14020 | 38989 ft | 509 kts | 111° |
| 2026-05-08 05:48 | 51.22787 | -16.03327 | 38988 ft | 509 kts | 111° |
| 2026-05-08 05:49 | 51.20488 | -15.92662 | 38988 ft | 509 kts | 111° |
| 2026-05-08 05:49 | 51.18176 | -15.81998 | 38986 ft | 509 kts | 111° |
| 2026-05-08 05:50 | 51.15874 | -15.71430 | 38985 ft | 508 kts | 111° |
| 2026-05-08 05:50 | 51.13543 | -15.60788 | 38983 ft | 508 kts | 111° |
| 2026-05-08 05:51 | 51.11206 | -15.50168 | 38985 ft | 508 kts | 111° |
| 2026-05-08 05:51 | 51.08859 | -15.39562 | 38985 ft | 508 kts | 112° |
| 2026-05-08 05:52 | 51.06501 | -15.28955 | 38978 ft | 508 kts | 112° |
| 2026-05-08 05:52 | 51.04136 | -15.18374 | 38980 ft | 508 kts | 112° |
| 2026-05-08 05:53 | 51.01762 | -15.07805 | 38984 ft | 508 kts | 112° |
| 2026-05-08 05:53 | 51.00175 | -14.96861 | 38982 ft | 513 kts | 95° |
| 2026-05-08 05:54 | 50.99963 | -14.85527 | 38985 ft | 515 kts | 92° |
| 2026-05-08 05:54 | 51.00014 | -14.74150 | 38984 ft | 515 kts | 91° |
| 2026-05-08 05:55 | 51.00084 | -14.62779 | 38984 ft | 515 kts | 91° |
| 2026-05-08 05:55 | 51.00113 | -14.51412 | 38984 ft | 515 kts | 92° |
| 2026-05-08 05:56 | 51.00112 | -14.40044 | 38983 ft | 515 kts | 92° |
| 2026-05-08 05:56 | 51.00095 | -14.28682 | 38977 ft | 515 kts | 92° |
| 2026-05-08 05:57 | 51.00067 | -14.17309 | 38985 ft | 515 kts | 92° |
| 2026-05-08 05:57 | 51.00029 | -14.05951 | 38987 ft | 514 kts | 92° |
| 2026-05-08 05:58 | 51.00072 | -13.94594 | 38985 ft | 515 kts | 90° |
| 2026-05-08 05:58 | 51.00352 | -13.83306 | 38985 ft | 515 kts | 89° |
| 2026-05-08 05:59 | 51.00668 | -13.71947 | 38985 ft | 515 kts | 89° |
| 2026-05-08 05:59 | 51.00949 | -13.60584 | 38980 ft | 514 kts | 90° |
| 2026-05-08 06:00 | 51.01200 | -13.49245 | 38985 ft | 513 kts | 90° |
| 2026-05-08 06:00 | 51.01434 | -13.37913 | 38988 ft | 513 kts | 90° |
| 2026-05-08 06:01 | 51.01657 | -13.26579 | 38996 ft | 513 kts | 90° |
| 2026-05-08 06:01 | 51.01871 | -13.15243 | 38982 ft | 513 kts | 90° |
| 2026-05-08 06:02 | 51.02073 | -13.03917 | 38983 ft | 513 kts | 90° |
| 2026-05-08 06:02 | 51.02265 | -12.92582 | 38985 ft | 513 kts | 91° |
| 2026-05-08 06:03 | 51.02446 | -12.81249 | 38990 ft | 513 kts | 91° |
| 2026-05-08 06:03 | 51.02616 | -12.69939 | 38984 ft | 512 kts | 91° |
| 2026-05-08 06:04 | 51.02775 | -12.58628 | 38984 ft | 512 kts | 91° |
| 2026-05-08 06:04 | 51.02922 | -12.47321 | 38989 ft | 512 kts | 91° |
| 2026-05-08 06:05 | 51.03059 | -12.36006 | 38982 ft | 512 kts | 91° |
| 2026-05-08 06:05 | 51.03185 | -12.24710 | 38984 ft | 511 kts | 91° |
| 2026-05-08 06:06 | 51.03299 | -12.13419 | 38992 ft | 511 kts | 91° |
| 2026-05-08 06:06 | 51.03403 | -12.02126 | 38997 ft | 511 kts | 91° |
| 2026-05-08 06:07 | 51.03496 | -11.90838 | 38997 ft | 511 kts | 91° |
| 2026-05-08 06:07 | 51.03578 | -11.79624 | 38993 ft | 511 kts | 92° |
| 2026-05-08 06:08 | 51.03649 | -11.68349 | 38995 ft | 510 kts | 92° |
| 2026-05-08 06:08 | 51.03709 | -11.57068 | 38996 ft | 510 kts | 92° |
| 2026-05-08 06:09 | 51.03758 | -11.45802 | 38996 ft | 510 kts | 92° |
| 2026-05-08 06:09 | 51.03797 | -11.34521 | 38996 ft | 511 kts | 92° |
| 2026-05-08 06:10 | 51.03825 | -11.23236 | 38995 ft | 511 kts | 92° |
| 2026-05-08 06:10 | 51.03842 | -11.11954 | 38992 ft | 510 kts | 92° |
| 2026-05-08 06:11 | 51.03848 | -11.00688 | 38996 ft | 510 kts | 92° |
| 2026-05-08 06:11 | 51.03843 | -10.89418 | 38992 ft | 510 kts | 92° |
| 2026-05-08 06:12 | 51.03828 | -10.78151 | 39002 ft | 510 kts | 92° |
| 2026-05-08 06:12 | 51.03801 | -10.66900 | 38999 ft | 509 kts | 92° |
| 2026-05-08 06:13 | 51.03764 | -10.55644 | 39001 ft | 509 kts | 93° |
| 2026-05-08 06:13 | 51.03716 | -10.44385 | 38995 ft | 509 kts | 93° |
| 2026-05-08 06:14 | 51.03657 | -10.33133 | 39000 ft | 510 kts | 93° |
| 2026-05-08 06:14 | 51.03587 | -10.21874 | 39004 ft | 510 kts | 93° |
| 2026-05-08 06:15 | 51.03507 | -10.10621 | 39004 ft | 510 kts | 93° |
| 2026-05-08 06:15 | 51.03416 | -9.99358 | 39004 ft | 510 kts | 93° |
| 2026-05-08 06:16 | 51.03314 | -9.88113 | 39006 ft | 509 kts | 93° |
| 2026-05-08 06:16 | 51.03201 | -9.76860 | 39004 ft | 509 kts | 93° |
| 2026-05-08 06:17 | 51.03011 | -9.59983 | 39004 ft | 509 kts | 94° |
| 2026-05-08 06:17 | 51.02871 | -9.48743 | 39001 ft | 509 kts | 94° |
| 2026-05-08 06:18 | 51.02721 | -9.37559 | 39007 ft | 510 kts | 94° |
| 2026-05-08 06:18 | 51.02560 | -9.26311 | 39007 ft | 510 kts | 94° |
| 2026-05-08 06:19 | 51.02388 | -9.15057 | 39007 ft | 510 kts | 94° |
| 2026-05-08 06:19 | 51.02205 | -9.03801 | 39012 ft | 510 kts | 94° |
| 2026-05-08 06:20 | 51.02011 | -8.92540 | 39015 ft | 510 kts | 94° |
| 2026-05-08 06:20 | 51.01806 | -8.81297 | 39008 ft | 510 kts | 94° |
| 2026-05-08 06:21 | 51.01590 | -8.70038 | 39016 ft | 510 kts | 94° |
| 2026-05-08 06:21 | 51.01364 | -8.58802 | 39009 ft | 509 kts | 94° |
| 2026-05-08 06:22 | 51.01127 | -8.47563 | 39007 ft | 509 kts | 94° |
| 2026-05-08 06:22 | 51.00880 | -8.36333 | 39014 ft | 509 kts | 94° |
| 2026-05-08 06:23 | 51.00621 | -8.25096 | 39265 ft | 509 kts | 94° |
| 2026-05-08 06:23 | 51.00488 | -8.19482 | 39432 ft | 509 kts | 94° |
| 2026-05-08 06:23 | 51.00352 | -8.13872 | 39583 ft | 508 kts | 94° |
| 2026-05-08 06:24 | 51.00214 | -8.08266 | 39723 ft | 508 kts | 94° |
| 2026-05-08 06:24 | 51.00077 | -8.02667 | 39875 ft | 508 kts | 93° |
| 2026-05-08 06:24 | 51.00258 | -7.91413 | 40118 ft | 510 kts | 89° |
| 2026-05-08 06:25 | 51.00410 | -7.85793 | 40257 ft | 510 kts | 89° |
| 2026-05-08 06:25 | 51.00576 | -7.80170 | 40393 ft | 510 kts | 89° |
| 2026-05-08 06:25 | 51.00746 | -7.74550 | 40525 ft | 510 kts | 89° |
| 2026-05-08 06:25 | 51.00915 | -7.68928 | 40658 ft | 510 kts | 89° |
| 2026-05-08 06:26 | 51.01079 | -7.63300 | 40790 ft | 510 kts | 89° |
| 2026-05-08 06:26 | 51.01238 | -7.57684 | 40918 ft | 510 kts | 89° |
| 2026-05-08 06:26 | 51.01543 | -7.46418 | 41017 ft | 511 kts | 89° |
| 2026-05-08 06:27 | 51.01786 | -7.37045 | 41015 ft | 511 kts | 89° |
| 2026-05-08 06:27 | 51.02068 | -7.25776 | 41015 ft | 510 kts | 89° |
| 2026-05-08 06:28 | 51.02339 | -7.14529 | 41014 ft | 510 kts | 89° |
| 2026-05-08 06:28 | 51.02600 | -7.03261 | 41015 ft | 511 kts | 89° |
| 2026-05-08 06:29 | 51.02850 | -6.91980 | 41014 ft | 511 kts | 89° |
| 2026-05-08 06:29 | 51.03089 | -6.80715 | 41015 ft | 511 kts | 89° |
| 2026-05-08 06:30 | 51.03318 | -6.69438 | 41017 ft | 511 kts | 89° |
| 2026-05-08 06:30 | 51.03535 | -6.58164 | 41014 ft | 511 kts | 89° |
| 2026-05-08 06:31 | 51.03742 | -6.46891 | 41013 ft | 511 kts | 89° |
| 2026-05-08 06:31 | 51.03938 | -6.35599 | 41019 ft | 511 kts | 89° |
| 2026-05-08 06:32 | 51.04123 | -6.24324 | 41014 ft | 511 kts | 90° |
| 2026-05-08 06:32 | 51.04297 | -6.13028 | 41013 ft | 511 kts | 90° |
| 2026-05-08 06:33 | 51.04460 | -6.01748 | 41015 ft | 511 kts | 90° |
| 2026-05-08 06:33 | 51.04612 | -5.90531 | 41014 ft | 511 kts | 90° |
| 2026-05-08 06:34 | 51.04754 | -5.79240 | 41014 ft | 511 kts | 90° |
| 2026-05-08 06:34 | 51.04885 | -5.67956 | 41007 ft | 511 kts | 90° |
| 2026-05-08 06:35 | 51.05004 | -5.56668 | 41013 ft | 512 kts | 90° |
| 2026-05-08 06:35 | 51.05114 | -5.45349 | 41015 ft | 512 kts | 90° |
| 2026-05-08 06:36 | 51.05212 | -5.34042 | 41015 ft | 512 kts | 90° |
| 2026-05-08 06:36 | 51.05300 | -5.22735 | 41018 ft | 512 kts | 90° |
| 2026-05-08 06:37 | 51.05376 | -5.11432 | 41018 ft | 512 kts | 90° |
| 2026-05-08 06:37 | 51.05442 | -5.00125 | 41018 ft | 512 kts | 90° |
| 2026-05-08 06:38 | 51.05496 | -4.88814 | 41018 ft | 512 kts | 90° |
| 2026-05-08 06:38 | 51.05540 | -4.77507 | 41015 ft | 512 kts | 90° |
| 2026-05-08 06:39 | 51.05573 | -4.66196 | 41009 ft | 512 kts | 90° |
| 2026-05-08 06:39 | 51.05595 | -4.54887 | 41021 ft | 512 kts | 90° |
| 2026-05-08 06:40 | 51.05606 | -4.43568 | 41013 ft | 512 kts | 91° |
| 2026-05-08 06:40 | 51.05606 | -4.32244 | 41016 ft | 512 kts | 91° |
| 2026-05-08 06:41 | 51.05595 | -4.20929 | 41024 ft | 512 kts | 91° |
| 2026-05-08 06:41 | 51.05573 | -4.09610 | 41016 ft | 513 kts | 91° |
| 2026-05-08 06:42 | 51.05540 | -3.98275 | 41011 ft | 513 kts | 91° |
| 2026-05-08 06:42 | 51.05497 | -3.86938 | 41018 ft | 513 kts | 91° |
| 2026-05-08 06:43 | 51.05442 | -3.75605 | 41010 ft | 513 kts | 91° |
| 2026-05-08 06:43 | 51.05377 | -3.64342 | 41020 ft | 513 kts | 91° |
| 2026-05-08 06:44 | 51.05300 | -3.53012 | 41019 ft | 513 kts | 91° |
| 2026-05-08 06:44 | 51.05212 | -3.41683 | 41018 ft | 513 kts | 91° |
| 2026-05-08 06:45 | 51.05114 | -3.30353 | 41010 ft | 513 kts | 91° |
| 2026-05-08 06:45 | 51.05005 | -3.19029 | 41016 ft | 511 kts | 91° |
| 2026-05-08 06:46 | 51.04884 | -3.07664 | 41015 ft | 511 kts | 91° |
| 2026-05-08 06:46 | 51.04753 | -2.96372 | 41015 ft | 511 kts | 91° |
| 2026-05-08 06:47 | 51.04613 | -2.85148 | 41019 ft | 511 kts | 91° |
| 2026-05-08 06:47 | 51.04460 | -2.73878 | 41015 ft | 510 kts | 91° |
| 2026-05-08 06:48 | 51.04297 | -2.62617 | 41019 ft | 509 kts | 91° |
| 2026-05-08 06:48 | 51.04124 | -2.51390 | 41030 ft | 509 kts | 92° |
| 2026-05-08 06:49 | 51.03940 | -2.40148 | 41022 ft | 509 kts | 92° |
| 2026-05-08 06:49 | 51.03745 | -2.28919 | 41019 ft | 508 kts | 92° |
| 2026-05-08 06:50 | 51.03539 | -2.17706 | 41028 ft | 507 kts | 92° |
| 2026-05-08 06:50 | 51.03324 | -2.06497 | 41050 ft | 507 kts | 92° |
| 2026-05-08 06:51 | 51.03411 | -1.95311 | 41046 ft | 507 kts | 87° |
| 2026-05-08 06:51 | 51.03820 | -1.84109 | 41049 ft | 507 kts | 86° |
| 2026-05-08 06:52 | 51.04279 | -1.72929 | 41055 ft | 507 kts | 86° |
| 2026-05-08 06:52 | 51.04729 | -1.61747 | 41041 ft | 507 kts | 86° |
| 2026-05-08 06:53 | 51.05157 | -1.50625 | 41054 ft | 507 kts | 87° |
| 2026-05-08 06:53 | 51.05576 | -1.39367 | 41050 ft | 507 kts | 87° |
| 2026-05-08 06:54 | 51.05975 | -1.28297 | 41051 ft | 507 kts | 87° |
| 2026-05-08 06:54 | 51.06369 | -1.17105 | 41053 ft | 507 kts | 87° |
| 2026-05-08 06:55 | 51.06753 | -1.05917 | 41054 ft | 507 kts | 87° |
| 2026-05-08 06:55 | 51.07125 | -0.94726 | 41053 ft | 507 kts | 87° |
| 2026-05-08 06:56 | 51.07488 | -0.83532 | 41073 ft | 507 kts | 87° |
| 2026-05-08 06:56 | 51.07839 | -0.72319 | 41075 ft | 507 kts | 88° |
| 2026-05-08 06:57 | 51.08180 | -0.61120 | 41074 ft | 507 kts | 88° |
| 2026-05-08 06:57 | 51.08510 | -0.49914 | 41077 ft | 507 kts | 88° |
| 2026-05-08 06:58 | 51.08829 | -0.38711 | 41077 ft | 507 kts | 88° |
| 2026-05-08 06:58 | 51.09138 | -0.27505 | 41074 ft | 507 kts | 88° |
| 2026-05-08 06:59 | 51.09423 | -0.16785 | 41075 ft | 507 kts | 88° |
| 2026-05-08 06:59 | 51.09704 | -0.05838 | 41075 ft | 507 kts | 88° |
| 2026-05-08 07:00 | 51.09976 | 0.05173 | 41018 ft | 507 kts | 88° |
| 2026-05-08 07:00 | 51.10243 | 0.16408 | 40973 ft | 508 kts | 88° |
| 2026-05-08 07:01 | 51.10499 | 0.27623 | 40931 ft | 508 kts | 88° |
| 2026-05-08 07:01 | 51.10745 | 0.38850 | 40912 ft | 508 kts | 88° |
| 2026-05-08 07:02 | 51.10980 | 0.50083 | 40908 ft | 508 kts | 89° |
| 2026-05-08 07:02 | 51.11204 | 0.61318 | 40943 ft | 508 kts | 89° |
| 2026-05-08 07:03 | 51.11417 | 0.72548 | 40986 ft | 508 kts | 89° |
| 2026-05-08 07:03 | 51.11619 | 0.83782 | 41034 ft | 508 kts | 89° |
| 2026-05-08 07:04 | 51.11811 | 0.95022 | 41093 ft | 508 kts | 89° |
| 2026-05-08 07:04 | 51.11992 | 1.06257 | 41103 ft | 508 kts | 89° |
| 2026-05-08 07:05 | 51.12161 | 1.17429 | 41101 ft | 508 kts | 89° |
| 2026-05-08 07:05 | 51.12321 | 1.28679 | 41100 ft | 508 kts | 89° |
| 2026-05-08 07:06 | 51.12470 | 1.39917 | 41100 ft | 508 kts | 89° |
| 2026-05-08 07:06 | 51.12608 | 1.51170 | 41100 ft | 508 kts | 89° |
| 2026-05-08 07:07 | 51.12730 | 1.62005 | 41095 ft | 509 kts | 90° |
| 2026-05-08 07:07 | 51.12847 | 1.73262 | 41091 ft | 509 kts | 90° |
| 2026-05-08 07:08 | 51.12952 | 1.84498 | 41092 ft | 509 kts | 90° |
| 2026-05-08 07:08 | 51.13047 | 1.95754 | 41098 ft | 509 kts | 90° |
| 2026-05-08 07:09 | 51.12707 | 2.06984 | 41099 ft | 508 kts | 95° |
| 2026-05-08 07:09 | 51.12136 | 2.18180 | 41097 ft | 508 kts | 96° |
| 2026-05-08 07:10 | 51.11512 | 2.29367 | 41091 ft | 508 kts | 96° |
| 2026-05-08 07:10 | 51.10883 | 2.40488 | 41089 ft | 508 kts | 96° |
| 2026-05-08 07:11 | 51.10247 | 2.51676 | 41089 ft | 508 kts | 96° |
| 2026-05-08 07:11 | 51.09556 | 2.62860 | 41087 ft | 507 kts | 100° |
| 2026-05-08 07:12 | 51.07940 | 2.73738 | 41089 ft | 506 kts | 107° |
| 2026-05-08 07:12 | 51.06022 | 2.84498 | 41097 ft | 506 kts | 108° |
| 2026-05-08 07:13 | 51.04039 | 2.95215 | 41097 ft | 506 kts | 108° |
| 2026-05-08 07:13 | 51.02052 | 3.05938 | 41098 ft | 506 kts | 108° |
| 2026-05-08 07:14 | 51.00072 | 3.16645 | 41088 ft | 506 kts | 108° |
| 2026-05-08 07:14 | 50.98421 | 3.25548 | 41088 ft | 506 kts | 108° |
| 2026-05-08 07:15 | 50.96427 | 3.36249 | 41086 ft | 506 kts | 108° |
| 2026-05-08 07:15 | 50.94422 | 3.46943 | 41091 ft | 506 kts | 108° |
| 2026-05-08 07:16 | 50.92406 | 3.57633 | 41089 ft | 506 kts | 108° |
| 2026-05-08 07:16 | 50.90376 | 3.68308 | 41091 ft | 506 kts | 108° |
| 2026-05-08 07:17 | 50.88324 | 3.78954 | 41088 ft | 506 kts | 108° |
| 2026-05-08 07:17 | 50.86258 | 3.89603 | 41091 ft | 506 kts | 109° |
| 2026-05-08 07:18 | 50.84182 | 4.00246 | 41093 ft | 506 kts | 109° |
| 2026-05-08 07:18 | 50.82101 | 4.10863 | 41095 ft | 506 kts | 109° |
| 2026-05-08 07:19 | 50.80009 | 4.21476 | 41084 ft | 506 kts | 109° |
| 2026-05-08 07:19 | 50.77908 | 4.32081 | 41100 ft | 506 kts | 109° |
| 2026-05-08 07:20 | 50.75795 | 4.42687 | 41100 ft | 506 kts | 109° |
| 2026-05-08 07:20 | 50.73673 | 4.53282 | 41100 ft | 506 kts | 109° |
| 2026-05-08 07:21 | 50.71556 | 4.63877 | 41098 ft | 506 kts | 109° |
| 2026-05-08 07:21 | 50.69494 | 4.74498 | 41094 ft | 506 kts | 108° |
| 2026-05-08 07:22 | 50.67455 | 4.85030 | 41091 ft | 506 kts | 109° |
| 2026-05-08 07:22 | 50.65368 | 4.95625 | 41094 ft | 506 kts | 109° |
| 2026-05-08 07:23 | 50.63207 | 5.06177 | 41100 ft | 506 kts | 109° |
| 2026-05-08 07:23 | 50.61026 | 5.16692 | 41077 ft | 502 kts | 110° |
| 2026-05-08 07:24 | 50.59951 | 5.21868 | 40857 ft | 494 kts | 110° |
| 2026-05-08 07:24 | 50.58892 | 5.26966 | 40635 ft | 486 kts | 110° |
| 2026-05-08 07:24 | 50.57845 | 5.31995 | 40290 ft | 482 kts | 110° |
| 2026-05-08 07:24 | 50.56791 | 5.37041 | 39537 ft | 489 kts | 110° |
| 2026-05-08 07:25 | 50.55723 | 5.42135 | 38909 ft | 492 kts | 110° |
| 2026-05-08 07:25 | 50.54646 | 5.47266 | 38188 ft | 495 kts | 110° |
| 2026-05-08 07:25 | 50.52488 | 5.57518 | 36898 ft | 494 kts | 110° |
| 2026-05-08 07:26 | 50.51428 | 5.62573 | 36254 ft | 494 kts | 110° |
| 2026-05-08 07:26 | 50.50397 | 5.67802 | 35572 ft | 495 kts | 109° |
| 2026-05-08 07:26 | 50.49419 | 5.73002 | 34835 ft | 498 kts | 108° |
| 2026-05-08 07:26 | 50.48452 | 5.78243 | 34033 ft | 501 kts | 108° |
| 2026-05-08 07:27 | 50.47483 | 5.83504 | 33131 ft | 503 kts | 108° |
| 2026-05-08 07:27 | 50.46507 | 5.88779 | 32315 ft | 503 kts | 108° |
| 2026-05-08 07:27 | 50.45530 | 5.94022 | 31476 ft | 496 kts | 108° |
| 2026-05-08 07:27 | 50.44572 | 5.99130 | 30930 ft | 479 kts | 108° |
| 2026-05-08 07:28 | 50.43641 | 6.04072 | 30378 ft | 464 kts | 108° |
| 2026-05-08 07:28 | 50.42726 | 6.08894 | 29792 ft | 460 kts | 108° |
| 2026-05-08 07:28 | 50.41812 | 6.13680 | 29208 ft | 456 kts | 108° |
| 2026-05-08 07:28 | 50.40916 | 6.18357 | 28670 ft | 452 kts | 108° |
| 2026-05-08 07:29 | 50.40002 | 6.23122 | 28115 ft | 449 kts | 108° |
| 2026-05-08 07:29 | 50.39106 | 6.27777 | 27570 ft | 445 kts | 108° |
| 2026-05-08 07:29 | 50.38225 | 6.32350 | 27038 ft | 442 kts | 108° |
| 2026-05-08 07:29 | 50.37338 | 6.36939 | 26488 ft | 439 kts | 108° |
| 2026-05-08 07:30 | 50.36588 | 6.41540 | 25969 ft | 438 kts | 101° |
| 2026-05-08 07:30 | 50.36152 | 6.46244 | 25421 ft | 436 kts | 98° |
| 2026-05-08 07:30 | 50.35798 | 6.50954 | 24865 ft | 434 kts | 97° |
| 2026-05-08 07:30 | 50.35489 | 6.55644 | 24317 ft | 432 kts | 96° |
| 2026-05-08 07:31 | 50.35202 | 6.60323 | 23758 ft | 431 kts | 96° |
| 2026-05-08 07:31 | 50.34920 | 6.64989 | 23149 ft | 429 kts | 96° |
| 2026-05-08 07:31 | 50.34638 | 6.69610 | 22578 ft | 425 kts | 96° |
| 2026-05-08 07:31 | 50.34352 | 6.74200 | 22033 ft | 421 kts | 96° |
| 2026-05-08 07:32 | 50.34069 | 6.78753 | 21493 ft | 418 kts | 96° |
| 2026-05-08 07:32 | 50.33677 | 6.83229 | 20959 ft | 413 kts | 104° |
| 2026-05-08 07:32 | 50.32704 | 6.87418 | 20427 ft | 408 kts | 119° |
| 2026-05-08 07:32 | 50.31240 | 6.91186 | 19905 ft | 404 kts | 125° |
| 2026-05-08 07:33 | 50.29651 | 6.94784 | 19376 ft | 401 kts | 127° |
| 2026-05-08 07:33 | 50.28043 | 6.98323 | 18867 ft | 398 kts | 127° |
| 2026-05-08 07:33 | 50.26438 | 7.01826 | 18345 ft | 395 kts | 127° |
| 2026-05-08 07:33 | 50.24842 | 7.05297 | 17789 ft | 392 kts | 127° |
| 2026-05-08 07:34 | 50.23261 | 7.08731 | 17255 ft | 387 kts | 127° |
| 2026-05-08 07:34 | 50.21697 | 7.12124 | 16768 ft | 383 kts | 127° |
| 2026-05-08 07:34 | 50.20147 | 7.15484 | 16255 ft | 380 kts | 127° |
| 2026-05-08 07:34 | 50.18610 | 7.18809 | 15750 ft | 376 kts | 127° |
| 2026-05-08 07:35 | 50.17088 | 7.22096 | 15257 ft | 372 kts | 127° |
| 2026-05-08 07:35 | 50.15578 | 7.25353 | 14754 ft | 368 kts | 127° |
| 2026-05-08 07:35 | 50.14084 | 7.28571 | 14281 ft | 365 kts | 127° |
| 2026-05-08 07:35 | 50.12598 | 7.31770 | 13761 ft | 362 kts | 127° |
| 2026-05-08 07:36 | 50.11129 | 7.34929 | 13244 ft | 358 kts | 127° |
| 2026-05-08 07:36 | 50.09676 | 7.38049 | 12775 ft | 353 kts | 127° |
| 2026-05-08 07:36 | 50.08241 | 7.41128 | 12292 ft | 350 kts | 127° |
| 2026-05-08 07:36 | 50.06816 | 7.44179 | 11811 ft | 347 kts | 127° |
| 2026-05-08 07:37 | 50.05401 | 7.47207 | 11354 ft | 344 kts | 127° |
| 2026-05-08 07:37 | 50.04000 | 7.50200 | 10887 ft | 341 kts | 127° |
| 2026-05-08 07:37 | 50.02620 | 7.53147 | 10497 ft | 335 kts | 127° |
| 2026-05-08 07:37 | 50.01303 | 7.55960 | 10273 ft | 315 kts | 128° |
| 2026-05-08 07:38 | 50.00053 | 7.58627 | 10082 ft | 295 kts | 128° |
| 2026-05-08 07:38 | 49.98880 | 7.61125 | 9949 ft | 280 kts | 128° |
| 2026-05-08 07:38 | 49.97734 | 7.63558 | 9780 ft | 279 kts | 128° |
| 2026-05-08 07:38 | 49.96588 | 7.65988 | 9412 ft | 279 kts | 128° |
| 2026-05-08 07:39 | 49.95441 | 7.68420 | 8970 ft | 280 kts | 128° |
| 2026-05-08 07:39 | 49.94286 | 7.70867 | 8532 ft | 281 kts | 128° |
| 2026-05-08 07:39 | 49.93131 | 7.73313 | 8098 ft | 282 kts | 127° |
| 2026-05-08 07:39 | 49.91972 | 7.75768 | 7644 ft | 281 kts | 127° |
| 2026-05-08 07:40 | 49.90830 | 7.78182 | 7230 ft | 274 kts | 127° |
| 2026-05-08 07:40 | 49.89724 | 7.80519 | 6865 ft | 270 kts | 127° |
| 2026-05-08 07:40 | 49.88605 | 7.82881 | 6600 ft | 266 kts | 127° |
| 2026-05-08 07:40 | 49.87624 | 7.85277 | 6351 ft | 261 kts | 115° |
| 2026-05-08 07:41 | 49.87188 | 7.87976 | 6091 ft | 260 kts | 92° |
| 2026-05-08 07:41 | 49.87465 | 7.90721 | 5848 ft | 258 kts | 73° |
| 2026-05-08 07:41 | 49.88077 | 7.93356 | 5680 ft | 262 kts | 69° |
| 2026-05-08 07:41 | 49.88745 | 7.95993 | 5511 ft | 264 kts | 69° |
| 2026-05-08 07:42 | 49.89432 | 7.98633 | 5362 ft | 261 kts | 67° |
| 2026-05-08 07:42 | 49.90142 | 8.01188 | 5260 ft | 256 kts | 67° |
| 2026-05-08 07:42 | 49.90826 | 8.03733 | 4980 ft | 255 kts | 69° |
| 2026-05-08 07:42 | 49.91461 | 8.06244 | 4882 ft | 244 kts | 70° |
| 2026-05-08 07:43 | 49.92036 | 8.08648 | 4877 ft | 234 kts | 70° |
| 2026-05-08 07:43 | 49.92596 | 8.11009 | 4790 ft | 230 kts | 70° |
| 2026-05-08 07:43 | 49.93142 | 8.13303 | 4671 ft | 223 kts | 70° |
| 2026-05-08 07:43 | 49.93677 | 8.15549 | 4543 ft | 220 kts | 70° |
| 2026-05-08 07:44 | 49.94196 | 8.17722 | 4435 ft | 210 kts | 70° |
| 2026-05-08 07:44 | 49.94693 | 8.19795 | 4319 ft | 201 kts | 70° |
| 2026-05-08 07:44 | 49.95175 | 8.21806 | 4185 ft | 199 kts | 69° |
| 2026-05-08 07:44 | 49.95659 | 8.23818 | 4051 ft | 199 kts | 69° |
| 2026-05-08 07:45 | 49.96143 | 8.25827 | 4004 ft | 198 kts | 69° |
| 2026-05-08 07:45 | 49.96616 | 8.27797 | 3872 ft | 191 kts | 69° |
| 2026-05-08 07:45 | 49.97077 | 8.29714 | 3624 ft | 189 kts | 69° |
| 2026-05-08 07:45 | 49.97533 | 8.31618 | 3345 ft | 187 kts | 69° |
| 2026-05-08 07:46 | 49.97971 | 8.33449 | 3073 ft | 179 kts | 69° |
| 2026-05-08 07:46 | 49.98395 | 8.35221 | 2830 ft | 169 kts | 69° |
| 2026-05-08 07:46 | 49.98793 | 8.36882 | 2585 ft | 159 kts | 69° |
| 2026-05-08 07:46 | 49.99168 | 8.38448 | 2394 ft | 150 kts | 70° |
| 2026-05-08 07:47 | 49.99519 | 8.39914 | 2195 ft | 141 kts | 69° |
| 2026-05-08 07:47 | 49.99859 | 8.41332 | 2007 ft | 139 kts | 70° |
| 2026-05-08 07:47 | 50.00194 | 8.42735 | 1821 ft | 139 kts | 70° |
| 2026-05-08 07:47 | 50.00530 | 8.44140 | 1627 ft | 139 kts | 70° |
| 2026-05-08 07:48 | 50.00862 | 8.45526 | 1435 ft | 139 kts | 70° |
| 2026-05-08 07:48 | 50.01196 | 8.46962 | 1192 ft | 139 kts | 69° |
| 2026-05-08 07:48 | 50.01512 | 8.48354 | 991 ft | 138 kts | 70° |
| 2026-05-08 07:48 | 50.01857 | 8.49748 | 811 ft | 137 kts | 69° |
| 2026-05-08 07:49 | 50.02200 | 8.51123 | 658 ft | 136 kts | 70° |
| 2026-05-08 07:49 | 50.02525 | 8.52510 | 471 ft | 136 kts | 69° |
| 2026-05-08 07:49 | 50.02861 | 8.53874 | 357 ft | 130 kts | 69° |
| 2026-05-08 07:49 | 50.03141 | 8.55035 | 356 ft | 90 kts | 69° |
| 2026-05-08 07:50 | 50.03298 | 8.55691 | 352 ft | 51 kts | 69° |
| 2026-05-08 07:50 | 50.03401 | 8.56110 | 358 ft | 25 kts | 65° |
| 2026-05-08 07:50 | 50.03481 | 8.56289 | 362 ft | 18 kts | 49° |
| 2026-05-08 07:50 | 50.03575 | 8.56422 | 358 ft | 19 kts | 40° |
| 2026-05-08 07:51 | 50.03672 | 8.56546 | 363 ft | 17 kts | 39° |
| 2026-05-08 07:51 | 50.03758 | 8.56660 | 364 ft | 16 kts | 45° |
| 2026-05-08 07:51 | 50.03810 | 8.56801 | 366 ft | 15 kts | 69° |
| 2026-05-08 07:51 | 50.03847 | 8.56957 | 360 ft | 16 kts | 70° |
| 2026-05-08 07:52 | 50.03884 | 8.57113 | 370 ft | 15 kts | 70° |
| 2026-05-08 07:52 | 50.03917 | 8.57255 | 368 ft | 13 kts | 70° |
| 2026-05-08 07:52 | 50.03949 | 8.57386 | 368 ft | 13 kts | 69° |
| 2026-05-08 07:52 | 50.03982 | 8.57522 | 374 ft | 15 kts | 70° |
| 2026-05-08 07:53 | 50.04025 | 8.57702 | 377 ft | 19 kts | 69° |
| 2026-05-08 07:53 | 50.04071 | 8.57895 | 375 ft | 19 kts | 69° |
| 2026-05-08 07:53 | 50.04124 | 8.58089 | 377 ft | 19 kts | 53° |
| 2026-05-08 07:53 | 50.04234 | 8.58204 | 373 ft | 14 kts | 19° |
| 2026-05-08 07:54 | 50.04321 | 8.58183 | 374 ft | 12 kts | 341° |
| 2026-05-08 07:54 | 50.04407 | 8.58134 | 376 ft | 14 kts | 340° |
| 2026-05-08 07:54 | 50.04510 | 8.58075 | 376 ft | 17 kts | 340° |
| 2026-05-08 07:54 | 50.04606 | 8.58019 | 369 ft | 14 kts | 339° |
| 2026-05-08 07:55 | 50.04712 | 8.57957 | 368 ft | 17 kts | 339° |
| 2026-05-08 07:55 | 50.04762 | 8.57929 | 367 ft | 4 kts | 339° |
| 2026-05-08 07:55 | 50.04797 | 8.57908 | 370 ft | 8 kts | 339° |
| 2026-05-08 07:55 | 50.04842 | 8.57855 | 367 ft | 9 kts | 302° |
| 2026-05-08 07:56 | 50.04865 | 8.57774 | 370 ft | 4 kts | 293° |
| 2026-05-08 07:56 | 50.04880 | 8.57720 | 367 ft | 7 kts | 293° |
| 2026-05-08 07:56 | 50.04908 | 8.57649 | 365 ft | 4 kts | 327° |
| 2026-05-08 07:56 | 50.04934 | 8.57658 | 366 ft | 4 kts | 21° |
| 2026-05-08 07:57 | 50.04949 | 8.57667 | 366 ft | 0 kts | 21° |
| 2026-05-08 07:57 | 50.04959 | 8.57673 | 367 ft | 3 kts | 21° |
| 2026-05-08 07:57 | 50.04972 | 8.57681 | 367 ft | 0 kts | 21° |